<?xml version='1.0' encoding='UTF-8'?><gpx version="1.1" creator="JPX - https://github.com/jenetics/jpx" xmlns="http://www.topografix.com/GPX/1/1"><trk><trkseg><trkpt lat="45.55003318242604" lon="10.419946534034032"><ele>190.0</ele><time>2026-04-22T14:18:34.001Z</time></trkpt><trkpt lat="45.55006906065792" lon="10.419859206975275"><ele>190.0</ele><time>2026-04-22T14:18:36.001Z</time></trkpt><trkpt lat="45.55012181516983" lon="10.41976103853568"><ele>190.0</ele><time>2026-04-22T14:18:38.001Z</time></trkpt><trkpt lat="45.55018014655191" lon="10.419666364023186"><ele>190.0</ele><time>2026-04-22T14:18:40.001Z</time></trkpt><trkpt lat="45.55024597627453" lon="10.419579748532"><ele>190.0</ele><time>2026-04-22T14:18:42.001Z</time></trkpt><trkpt lat="45.550304623487634" lon="10.419494814522773"><ele>190.0</ele><time>2026-04-22T14:18:44.001Z</time></trkpt><trkpt lat="45.550367004652855" lon="10.419417054848026"><ele>189.8</ele><time>2026-04-22T14:18:46.001Z</time></trkpt><trkpt lat="45.550436211351794" lon="10.4193197070271"><ele>189.6</ele><time>2026-04-22T14:18:48.001Z</time></trkpt><trkpt lat="45.55050950022238" lon="10.419215686157598"><ele>189.39999999999998</ele><time>2026-04-22T14:18:50.001Z</time></trkpt><trkpt lat="45.550578139861535" lon="10.419088511496463"><ele>189.2</ele><time>2026-04-22T14:18:52.001Z</time></trkpt><trkpt lat="45.550656021626736" lon="10.418986602232563"><ele>189.0</ele><time>2026-04-22T14:18:54.001Z</time></trkpt><trkpt lat="45.550729954801845" lon="10.41887138389566"><ele>189.25</ele><time>2026-04-22T14:18:56.001Z</time></trkpt><trkpt lat="45.55080343965341" lon="10.418751627297613"><ele>189.5</ele><time>2026-04-22T14:18:58.001Z</time></trkpt><trkpt lat="45.550889029514416" lon="10.418641318846767"><ele>189.75</ele><time>2026-04-22T14:19:00.001Z</time></trkpt><trkpt lat="45.55095883881078" lon="10.418517757073051"><ele>190.0</ele><time>2026-04-22T14:19:02.001Z</time></trkpt><trkpt lat="45.55103538238073" lon="10.418394126113679"><ele>190.0</ele><time>2026-04-22T14:19:04.001Z</time></trkpt><trkpt lat="45.55108245286182" lon="10.418325932119101"><ele>190.0</ele><time>2026-04-22T14:19:05.001Z</time></trkpt><trkpt lat="45.551130282413176" lon="10.418265026718055"><ele>190.0</ele><time>2026-04-22T14:19:06.001Z</time></trkpt><trkpt lat="45.5511747808083" lon="10.418201099686176"><ele>190.0</ele><time>2026-04-22T14:19:07.001Z</time></trkpt><trkpt lat="45.551256785197076" lon="10.418087110262297"><ele>190.0</ele><time>2026-04-22T14:19:09.001Z</time></trkpt><trkpt lat="45.551344726208804" lon="10.417980003817071"><ele>190.0</ele><time>2026-04-22T14:19:11.001Z</time></trkpt><trkpt lat="45.55138583614728" lon="10.41787632408461"><ele>189.83333333333334</ele><time>2026-04-22T14:19:13.001Z</time></trkpt><trkpt lat="45.55143678136794" lon="10.417804667747088"><ele>189.66666666666669</ele><time>2026-04-22T14:19:14.001Z</time></trkpt><trkpt lat="45.551496829405515" lon="10.417676707186258"><ele>189.5</ele><time>2026-04-22T14:19:16.001Z</time></trkpt><trkpt lat="45.55154589652579" lon="10.417520336045367"><ele>189.33333333333334</ele><time>2026-04-22T14:19:18.001Z</time></trkpt><trkpt lat="45.55156164527907" lon="10.417430038981445"><ele>189.16666666666666</ele><time>2026-04-22T14:19:19.001Z</time></trkpt><trkpt lat="45.55157432325157" lon="10.417341155856548"><ele>189.0</ele><time>2026-04-22T14:19:20.001Z</time></trkpt><trkpt lat="45.55159768109151" lon="10.417176123362204"><ele>188.5</ele><time>2026-04-22T14:19:22.001Z</time></trkpt><trkpt lat="45.551610735714604" lon="10.417080457926813"><ele>188.0</ele><time>2026-04-22T14:19:23.001Z</time></trkpt><trkpt lat="45.551610277724045" lon="10.41698245220768"><ele>187.5</ele><time>2026-04-22T14:19:24.001Z</time></trkpt><trkpt lat="45.551638214616936" lon="10.416830166417341"><ele>187.0</ele><time>2026-04-22T14:19:26.001Z</time></trkpt><trkpt lat="45.55166999661178" lon="10.416726784722366"><ele>186.5</ele><time>2026-04-22T14:19:28.001Z</time></trkpt><trkpt lat="45.55167965601379" lon="10.41662060220123"><ele>186.0</ele><time>2026-04-22T14:19:31.001Z</time></trkpt><trkpt lat="45.5517104674883" lon="10.416529506917477"><ele>186.0</ele><time>2026-04-22T14:19:34.001Z</time></trkpt><trkpt lat="45.551664405071755" lon="10.416444131700581"><ele>186.0</ele><time>2026-04-22T14:19:53.002Z</time></trkpt><trkpt lat="45.55164945826478" lon="10.416320239034563"><ele>186.0</ele><time>2026-04-22T14:19:56.002Z</time></trkpt><trkpt lat="45.551655773312895" lon="10.416214787659277"><ele>186.0</ele><time>2026-04-22T14:19:59.002Z</time></trkpt><trkpt lat="45.55166536958128" lon="10.416124227221426"><ele>186.0</ele><time>2026-04-22T14:20:01.002Z</time></trkpt><trkpt lat="45.55168155529718" lon="10.416024879246349"><ele>186.0</ele><time>2026-04-22T14:20:04.001Z</time></trkpt><trkpt lat="45.551716836383534" lon="10.415886975680888"><ele>186.0</ele><time>2026-04-22T14:20:07.001Z</time></trkpt><trkpt lat="45.551748941333635" lon="10.415777460699006"><ele>186.0</ele><time>2026-04-22T14:20:09.001Z</time></trkpt><trkpt lat="45.55178457263077" lon="10.415655375938679"><ele>186.0</ele><time>2026-04-22T14:20:11.001Z</time></trkpt><trkpt lat="45.551819144612345" lon="10.415518659018476"><ele>186.0</ele><time>2026-04-22T14:20:13.001Z</time></trkpt><trkpt lat="45.5518600665234" lon="10.415395461469304"><ele>186.0</ele><time>2026-04-22T14:20:15.001Z</time></trkpt><trkpt lat="45.55188536074895" lon="10.415290825328666"><ele>186.16666666666666</ele><time>2026-04-22T14:20:17.001Z</time></trkpt><trkpt lat="45.55189989920386" lon="10.415163312774336"><ele>186.33333333333334</ele><time>2026-04-22T14:20:19.001Z</time></trkpt><trkpt lat="45.55192472693218" lon="10.415042397122226"><ele>186.5</ele><time>2026-04-22T14:20:21.001Z</time></trkpt><trkpt lat="45.55193214709728" lon="10.414928764856963"><ele>186.66666666666669</ele><time>2026-04-22T14:20:23.001Z</time></trkpt><trkpt lat="45.55195368522371" lon="10.414819205519825"><ele>186.83333333333334</ele><time>2026-04-22T14:20:25.001Z</time></trkpt><trkpt lat="45.55196977120687" lon="10.414683623549116"><ele>187.0</ele><time>2026-04-22T14:20:27.001Z</time></trkpt><trkpt lat="45.55198648388595" lon="10.414527305749369"><ele>187.0</ele><time>2026-04-22T14:20:29.001Z</time></trkpt><trkpt lat="45.55202091641946" lon="10.414390218723392"><ele>187.0</ele><time>2026-04-22T14:20:31.001Z</time></trkpt><trkpt lat="45.55204289627761" lon="10.414246883396418"><ele>187.0</ele><time>2026-04-22T14:20:33.001Z</time></trkpt><trkpt lat="45.552065274022546" lon="10.414114885258776"><ele>187.0</ele><time>2026-04-22T14:20:35.001Z</time></trkpt><trkpt lat="45.55209200214995" lon="10.41398312764603"><ele>187.0</ele><time>2026-04-22T14:20:37Z</time></trkpt><trkpt lat="45.552128098271154" lon="10.41385998023389"><ele>187.16666666666669</ele><time>2026-04-22T14:20:39Z</time></trkpt><trkpt lat="45.55216835544567" lon="10.413753173148177"><ele>187.33333333333334</ele><time>2026-04-22T14:20:41Z</time></trkpt><trkpt lat="45.55221585873367" lon="10.413656411190248"><ele>187.5</ele><time>2026-04-22T14:20:43Z</time></trkpt><trkpt lat="45.55227271169351" lon="10.413588259678875"><ele>187.66666666666666</ele><time>2026-04-22T14:20:45Z</time></trkpt><trkpt lat="45.552314571369884" lon="10.413484774686319"><ele>187.83333333333331</ele><time>2026-04-22T14:20:47Z</time></trkpt><trkpt lat="45.552389645457325" lon="10.413409093693005"><ele>188.0</ele><time>2026-04-22T14:20:49Z</time></trkpt><trkpt lat="45.55245400984173" lon="10.413329579482118"><ele>188.0</ele><time>2026-04-22T14:20:51Z</time></trkpt><trkpt lat="45.552503006277526" lon="10.413259071990028"><ele>188.0</ele><time>2026-04-22T14:20:53Z</time></trkpt><trkpt lat="45.5525486468659" lon="10.413170745687452"><ele>188.0</ele><time>2026-04-22T14:20:56Z</time></trkpt><trkpt lat="45.55252496525608" lon="10.413032617334004"><ele>188.0</ele><time>2026-04-22T14:21:00Z</time></trkpt><trkpt lat="45.55247465830847" lon="10.41295423597417"><ele>188.0</ele><time>2026-04-22T14:21:02Z</time></trkpt><trkpt lat="45.55241937398628" lon="10.412869997600223"><ele>188.0</ele><time>2026-04-22T14:21:04Z</time></trkpt><trkpt lat="45.55236552101834" lon="10.41279611768702"><ele>188.0</ele><time>2026-04-22T14:21:06Z</time></trkpt><trkpt lat="45.552298001435474" lon="10.412723657824628"><ele>188.0</ele><time>2026-04-22T14:21:09.001Z</time></trkpt><trkpt lat="45.55223902293928" lon="10.41264924886446"><ele>188.0</ele><time>2026-04-22T14:21:11.001Z</time></trkpt><trkpt lat="45.55218280429188" lon="10.412550748678669"><ele>188.0</ele><time>2026-04-22T14:21:13.001Z</time></trkpt><trkpt lat="45.55212368031701" lon="10.412471086752289"><ele>188.0</ele><time>2026-04-22T14:21:15.001Z</time></trkpt><trkpt lat="45.55207353645249" lon="10.412392710979754"><ele>188.0</ele><time>2026-04-22T14:21:17.001Z</time></trkpt><trkpt lat="45.55204571568648" lon="10.412310355739013"><ele>188.0</ele><time>2026-04-22T14:21:19.001Z</time></trkpt><trkpt lat="45.55198979223064" lon="10.412246073208705"><ele>188.0</ele><time>2026-04-22T14:21:21.001Z</time></trkpt><trkpt lat="45.55193689272222" lon="10.4121294431491"><ele>188.0</ele><time>2026-04-22T14:21:24.001Z</time></trkpt><trkpt lat="45.55188183154634" lon="10.412018707315067"><ele>188.0</ele><time>2026-04-22T14:21:27.001Z</time></trkpt><trkpt lat="45.55190905668504" lon="10.411906851489436"><ele>188.0</ele><time>2026-04-22T14:21:30.001Z</time></trkpt><trkpt lat="45.5519531296015" lon="10.411796456196795"><ele>188.0</ele><time>2026-04-22T14:21:33.001Z</time></trkpt><trkpt lat="45.55205984960184" lon="10.41179675159545"><ele>187.33333333333331</ele><time>2026-04-22T14:21:35.001Z</time></trkpt><trkpt lat="45.55211278981015" lon="10.411741997669534"><ele>186.66666666666666</ele><time>2026-04-22T14:21:37.001Z</time></trkpt><trkpt lat="45.552184094746046" lon="10.411687834707877"><ele>186.0</ele><time>2026-04-22T14:21:39.001Z</time></trkpt><trkpt lat="45.55224536364362" lon="10.411625567131168"><ele>185.33333333333334</ele><time>2026-04-22T14:21:41.001Z</time></trkpt><trkpt lat="45.55231045095402" lon="10.411558160395462"><ele>184.66666666666669</ele><time>2026-04-22T14:21:43.001Z</time></trkpt><trkpt lat="45.552367994017956" lon="10.411495286383031"><ele>184.0</ele><time>2026-04-22T14:21:45.001Z</time></trkpt><trkpt lat="45.55244741110708" lon="10.411416686265257"><ele>184.0</ele><time>2026-04-22T14:21:47.001Z</time></trkpt><trkpt lat="45.55251885115819" lon="10.411348223573494"><ele>184.0</ele><time>2026-04-22T14:21:49.001Z</time></trkpt><trkpt lat="45.552590567811926" lon="10.411292588324537"><ele>184.0</ele><time>2026-04-22T14:21:51.001Z</time></trkpt><trkpt lat="45.55268270792644" lon="10.411219981280723"><ele>184.0</ele><time>2026-04-22T14:21:53.001Z</time></trkpt><trkpt lat="45.55277704895125" lon="10.411136813370558"><ele>184.0</ele><time>2026-04-22T14:21:55.001Z</time></trkpt><trkpt lat="45.55286777160248" lon="10.41106065236553"><ele>184.0</ele><time>2026-04-22T14:21:57.001Z</time></trkpt><trkpt lat="45.55295276760728" lon="10.410972820046918"><ele>184.0</ele><time>2026-04-22T14:21:59.001Z</time></trkpt><trkpt lat="45.55303701038291" lon="10.41087482087787"><ele>184.0</ele><time>2026-04-22T14:22:01.001Z</time></trkpt><trkpt lat="45.55313604226609" lon="10.410800905676458"><ele>184.0</ele><time>2026-04-22T14:22:03.001Z</time></trkpt><trkpt lat="45.55323612322799" lon="10.41071697242238"><ele>184.0</ele><time>2026-04-22T14:22:05.001Z</time></trkpt><trkpt lat="45.55329359411376" lon="10.410671423250598"><ele>184.0</ele><time>2026-04-22T14:22:06.001Z</time></trkpt><trkpt lat="45.55335095075333" lon="10.410613699996047"><ele>184.0</ele><time>2026-04-22T14:22:07.001Z</time></trkpt><trkpt lat="45.553410651318075" lon="10.41056118888106"><ele>184.0</ele><time>2026-04-22T14:22:08.001Z</time></trkpt><trkpt lat="45.55346993448745" lon="10.410511486920667"><ele>184.0</ele><time>2026-04-22T14:22:09.001Z</time></trkpt><trkpt lat="45.55352496481569" lon="10.410459580614281"><ele>184.0</ele><time>2026-04-22T14:22:10.001Z</time></trkpt><trkpt lat="45.55358201675298" lon="10.410408898319515"><ele>184.0</ele><time>2026-04-22T14:22:11.001Z</time></trkpt><trkpt lat="45.55363610700574" lon="10.410361333005426"><ele>184.0</ele><time>2026-04-22T14:22:12.001Z</time></trkpt><trkpt lat="45.55369396644286" lon="10.410311743631487"><ele>184.14285714285714</ele><time>2026-04-22T14:22:13.001Z</time></trkpt><trkpt lat="45.55374895957612" lon="10.41025988526535"><ele>184.28571428571428</ele><time>2026-04-22T14:22:14.001Z</time></trkpt><trkpt lat="45.553806191492704" lon="10.410208600212203"><ele>184.42857142857142</ele><time>2026-04-22T14:22:15.001Z</time></trkpt><trkpt lat="45.55386968373657" lon="10.410163838875745"><ele>184.57142857142856</ele><time>2026-04-22T14:22:16.001Z</time></trkpt><trkpt lat="45.55392761052296" lon="10.410112891786081"><ele>184.71428571428572</ele><time>2026-04-22T14:22:17Z</time></trkpt><trkpt lat="45.5539900815442" lon="10.410070479120623"><ele>184.85714285714283</ele><time>2026-04-22T14:22:18Z</time></trkpt><trkpt lat="45.554048811706664" lon="10.41002985024456"><ele>185.0</ele><time>2026-04-22T14:22:19Z</time></trkpt><trkpt lat="45.554108794559355" lon="10.409990986601152"><ele>185.0</ele><time>2026-04-22T14:22:20Z</time></trkpt><trkpt lat="45.55420415543188" lon="10.409905668691454"><ele>185.0</ele><time>2026-04-22T14:22:22Z</time></trkpt><trkpt lat="45.55431056534671" lon="10.409853467806125"><ele>185.0</ele><time>2026-04-22T14:22:24Z</time></trkpt><trkpt lat="45.5544116121859" lon="10.409809047967391"><ele>185.0</ele><time>2026-04-22T14:22:26Z</time></trkpt><trkpt lat="45.55450514094793" lon="10.409751518532978"><ele>185.0</ele><time>2026-04-22T14:22:28Z</time></trkpt><trkpt lat="45.55459539890433" lon="10.409679049219474"><ele>185.0</ele><time>2026-04-22T14:22:30Z</time></trkpt><trkpt lat="45.55467878720519" lon="10.409599222718334"><ele>185.0</ele><time>2026-04-22T14:22:32Z</time></trkpt><trkpt lat="45.55475803788605" lon="10.409527061215739"><ele>185.0</ele><time>2026-04-22T14:22:34Z</time></trkpt><trkpt lat="45.55483203043534" lon="10.40946576852496"><ele>185.0</ele><time>2026-04-22T14:22:36Z</time></trkpt><trkpt lat="45.55490928397333" lon="10.409504560647623"><ele>185.0</ele><time>2026-04-22T14:22:39Z</time></trkpt><trkpt lat="45.554962735609024" lon="10.409555843598055"><ele>185.0</ele><time>2026-04-22T14:22:41Z</time></trkpt><trkpt lat="45.55506443971209" lon="10.409640730480241"><ele>185.0</ele><time>2026-04-22T14:22:43Z</time></trkpt><trkpt lat="45.55517773516329" lon="10.409586906616374"><ele>185.0</ele><time>2026-04-22T14:22:45Z</time></trkpt><trkpt lat="45.55522398341935" lon="10.40951909898678"><ele>185.0</ele><time>2026-04-22T14:22:46Z</time></trkpt><trkpt lat="45.5552557066101" lon="10.409432707057997"><ele>185.0</ele><time>2026-04-22T14:22:47Z</time></trkpt><trkpt lat="45.555285102187625" lon="10.409346383595734"><ele>185.0</ele><time>2026-04-22T14:22:48Z</time></trkpt><trkpt lat="45.55532812593153" lon="10.409264495439313"><ele>185.0</ele><time>2026-04-22T14:22:49Z</time></trkpt><trkpt lat="45.55536307834575" lon="10.409188835366503"><ele>185.28571428571428</ele><time>2026-04-22T14:22:50Z</time></trkpt><trkpt lat="45.55537688674081" lon="10.40909675248195"><ele>185.57142857142856</ele><time>2026-04-22T14:22:51Z</time></trkpt><trkpt lat="45.55538769251628" lon="10.409001979574628"><ele>185.85714285714283</ele><time>2026-04-22T14:22:52Z</time></trkpt><trkpt lat="45.55542333196316" lon="10.408924381515435"><ele>186.14285714285714</ele><time>2026-04-22T14:22:53Z</time></trkpt><trkpt lat="45.555477614430586" lon="10.408862262177333"><ele>186.42857142857144</ele><time>2026-04-22T14:22:54Z</time></trkpt><trkpt lat="45.555531430328735" lon="10.408803106891067"><ele>186.7142857142857</ele><time>2026-04-22T14:22:55Z</time></trkpt><trkpt lat="45.5555849330258" lon="10.408751300843651"><ele>187.0</ele><time>2026-04-22T14:22:56Z</time></trkpt><trkpt lat="45.55563799747873" lon="10.40869991815133"><ele>187.0</ele><time>2026-04-22T14:22:57Z</time></trkpt><trkpt lat="45.55568830748739" lon="10.408642747726935"><ele>187.0</ele><time>2026-04-22T14:22:58Z</time></trkpt><trkpt lat="45.55578474094966" lon="10.408531172971635"><ele>187.0</ele><time>2026-04-22T14:23:00Z</time></trkpt><trkpt lat="45.55587883807859" lon="10.408419132255931"><ele>187.0</ele><time>2026-04-22T14:23:02Z</time></trkpt><trkpt lat="45.555926167000855" lon="10.408359634757131"><ele>187.0</ele><time>2026-04-22T14:23:03Z</time></trkpt><trkpt lat="45.55601491000519" lon="10.40824581904088"><ele>187.0</ele><time>2026-04-22T14:23:05Z</time></trkpt><trkpt lat="45.55610047954922" lon="10.408130792502998"><ele>187.0</ele><time>2026-04-22T14:23:07Z</time></trkpt><trkpt lat="45.55620349028237" lon="10.408038131574118"><ele>187.0</ele><time>2026-04-22T14:23:09Z</time></trkpt><trkpt lat="45.55629369641273" lon="10.407935069681798"><ele>187.0</ele><time>2026-04-22T14:23:11Z</time></trkpt><trkpt lat="45.55638333826831" lon="10.407810290673485"><ele>189.6</ele><time>2026-04-22T14:23:13Z</time></trkpt><trkpt lat="45.55647430156266" lon="10.40772008235736"><ele>192.2</ele><time>2026-04-22T14:23:15Z</time></trkpt><trkpt lat="45.55653663014563" lon="10.407694376601135"><ele>194.8</ele><time>2026-04-22T14:23:16Z</time></trkpt><trkpt lat="45.55649885296437" lon="10.407529293111914"><ele>197.4</ele><time>2026-04-22T14:23:18Z</time></trkpt><trkpt lat="45.55643834191757" lon="10.407429415676182"><ele>200.0</ele><time>2026-04-22T14:23:20Z</time></trkpt><trkpt lat="45.55636078481905" lon="10.407343286151328"><ele>200.0</ele><time>2026-04-22T14:23:22Z</time></trkpt><trkpt lat="45.556295992242504" lon="10.40727201262079"><ele>200.0</ele><time>2026-04-22T14:23:24Z</time></trkpt><trkpt lat="45.55622969924008" lon="10.407201550229294"><ele>200.0</ele><time>2026-04-22T14:23:26Z</time></trkpt><trkpt lat="45.556155322383155" lon="10.40713101209848"><ele>200.0</ele><time>2026-04-22T14:23:28Z</time></trkpt><trkpt lat="45.55606950351176" lon="10.407038462299518"><ele>200.0</ele><time>2026-04-22T14:23:30Z</time></trkpt><trkpt lat="45.555990803452914" lon="10.406909810303256"><ele>197.75</ele><time>2026-04-22T14:23:32Z</time></trkpt><trkpt lat="45.555910856268966" lon="10.406777536870656"><ele>195.5</ele><time>2026-04-22T14:23:34Z</time></trkpt><trkpt lat="45.55582357861297" lon="10.406656282331108"><ele>193.25</ele><time>2026-04-22T14:23:36Z</time></trkpt><trkpt lat="45.555739396113026" lon="10.406555342321719"><ele>191.0</ele><time>2026-04-22T14:23:38Z</time></trkpt><trkpt lat="45.55565313114118" lon="10.406465001301685"><ele>191.0</ele><time>2026-04-22T14:23:40Z</time></trkpt><trkpt lat="45.55556484225159" lon="10.406386126055427"><ele>191.0</ele><time>2026-04-22T14:23:42Z</time></trkpt><trkpt lat="45.55547397976053" lon="10.406297850662199"><ele>191.0</ele><time>2026-04-22T14:23:44Z</time></trkpt><trkpt lat="45.555391495259826" lon="10.406187202600215"><ele>191.0</ele><time>2026-04-22T14:23:46Z</time></trkpt><trkpt lat="45.55530335496903" lon="10.406083148681121"><ele>191.0</ele><time>2026-04-22T14:23:48Z</time></trkpt><trkpt lat="45.5552104564893" lon="10.405992894009835"><ele>190.0</ele><time>2026-04-22T14:23:50Z</time></trkpt><trkpt lat="45.55511065490821" lon="10.405942515669837"><ele>189.0</ele><time>2026-04-22T14:23:52Z</time></trkpt><trkpt lat="45.55500804982596" lon="10.405894826598908"><ele>188.0</ele><time>2026-04-22T14:23:54Z</time></trkpt><trkpt lat="45.554916356529006" lon="10.405837059525322"><ele>187.0</ele><time>2026-04-22T14:23:56Z</time></trkpt><trkpt lat="45.55482742773468" lon="10.405751845136537"><ele>186.0</ele><time>2026-04-22T14:23:58Z</time></trkpt><trkpt lat="45.55479251833699" lon="10.405622585979106"><ele>187.4</ele><time>2026-04-22T14:24:00Z</time></trkpt><trkpt lat="45.55476156900668" lon="10.405479072136963"><ele>188.8</ele><time>2026-04-22T14:24:02Z</time></trkpt><trkpt lat="45.55472739861698" lon="10.405329092548156"><ele>190.20000000000002</ele><time>2026-04-22T14:24:04Z</time></trkpt><trkpt lat="45.554690429550995" lon="10.405188277158606"><ele>191.60000000000002</ele><time>2026-04-22T14:24:06Z</time></trkpt><trkpt lat="45.5546534297983" lon="10.405047347205002"><ele>193.0</ele><time>2026-04-22T14:24:08Z</time></trkpt><trkpt lat="45.55462082265202" lon="10.404907413554309"><ele>193.0</ele><time>2026-04-22T14:24:10Z</time></trkpt><trkpt lat="45.55458393854829" lon="10.404771013684906"><ele>193.0</ele><time>2026-04-22T14:24:12Z</time></trkpt><trkpt lat="45.55456770878135" lon="10.404634518062647"><ele>193.0</ele><time>2026-04-22T14:24:14Z</time></trkpt><trkpt lat="45.55454105354166" lon="10.404493361034291"><ele>193.0</ele><time>2026-04-22T14:24:16Z</time></trkpt><trkpt lat="45.554501002895286" lon="10.404338400414096"><ele>193.0</ele><time>2026-04-22T14:24:18Z</time></trkpt><trkpt lat="45.55447073059546" lon="10.404251425756032"><ele>193.2</ele><time>2026-04-22T14:24:19Z</time></trkpt><trkpt lat="45.554440817492484" lon="10.404170341027461"><ele>193.4</ele><time>2026-04-22T14:24:20Z</time></trkpt><trkpt lat="45.55439633037629" lon="10.404023468455485"><ele>193.6</ele><time>2026-04-22T14:24:22Z</time></trkpt><trkpt lat="45.55435672607279" lon="10.403874480357036"><ele>193.79999999999998</ele><time>2026-04-22T14:24:24Z</time></trkpt><trkpt lat="45.554300408379646" lon="10.403747352680533"><ele>194.0</ele><time>2026-04-22T14:24:26Z</time></trkpt><trkpt lat="45.55424289090743" lon="10.403612346914183"><ele>194.0</ele><time>2026-04-22T14:24:28Z</time></trkpt><trkpt lat="45.55418047345612" lon="10.403469920503765"><ele>194.0</ele><time>2026-04-22T14:24:30Z</time></trkpt><trkpt lat="45.55411617633878" lon="10.403317713832724"><ele>194.0</ele><time>2026-04-22T14:24:32Z</time></trkpt><trkpt lat="45.55404054362205" lon="10.403179762684182"><ele>194.0</ele><time>2026-04-22T14:24:34Z</time></trkpt><trkpt lat="45.55396683239356" lon="10.403030603414399"><ele>192.0</ele><time>2026-04-22T14:24:36Z</time></trkpt><trkpt lat="45.55390180435415" lon="10.402880981715938"><ele>190.0</ele><time>2026-04-22T14:24:38Z</time></trkpt><trkpt lat="45.55383074525412" lon="10.402743124533293"><ele>188.0</ele><time>2026-04-22T14:24:40Z</time></trkpt><trkpt lat="45.55376470787124" lon="10.402596599163672"><ele>186.0</ele><time>2026-04-22T14:24:42Z</time></trkpt><trkpt lat="45.55373279420388" lon="10.402518805758785"><ele>184.0</ele><time>2026-04-22T14:24:43Z</time></trkpt><trkpt lat="45.55366176846072" lon="10.40237637775529"><ele>184.0</ele><time>2026-04-22T14:24:45Z</time></trkpt><trkpt lat="45.55363580022428" lon="10.402292711962211"><ele>184.0</ele><time>2026-04-22T14:24:46Z</time></trkpt><trkpt lat="45.55359064665761" lon="10.402139444621339"><ele>184.0</ele><time>2026-04-22T14:24:48Z</time></trkpt><trkpt lat="45.55353696509017" lon="10.401978034952577"><ele>184.0</ele><time>2026-04-22T14:24:50Z</time></trkpt><trkpt lat="45.553508046856756" lon="10.401894857909271"><ele>184.0</ele><time>2026-04-22T14:24:51Z</time></trkpt><trkpt lat="45.55346150620355" lon="10.40173831782463"><ele>184.5</ele><time>2026-04-22T14:24:53Z</time></trkpt><trkpt lat="45.5534220741968" lon="10.401658825830133"><ele>185.0</ele><time>2026-04-22T14:24:54Z</time></trkpt><trkpt lat="45.55339639440395" lon="10.40155844601466"><ele>185.5</ele><time>2026-04-22T14:24:55Z</time></trkpt><trkpt lat="45.55335564912791" lon="10.401486210845988"><ele>186.0</ele><time>2026-04-22T14:24:56Z</time></trkpt><trkpt lat="45.55327496795114" lon="10.401370192623101"><ele>186.5</ele><time>2026-04-22T14:24:58Z</time></trkpt><trkpt lat="45.55320290595534" lon="10.401253697782378"><ele>187.0</ele><time>2026-04-22T14:25:00Z</time></trkpt><trkpt lat="45.55315527286007" lon="10.401083682330684"><ele>187.0</ele><time>2026-04-22T14:25:02Z</time></trkpt><trkpt lat="45.55308844779131" lon="10.40094606469424"><ele>187.0</ele><time>2026-04-22T14:25:04Z</time></trkpt><trkpt lat="45.55302731430622" lon="10.400792906919895"><ele>187.0</ele><time>2026-04-22T14:25:06Z</time></trkpt><trkpt lat="45.55299557331636" lon="10.400628749431325"><ele>187.0</ele><time>2026-04-22T14:25:08Z</time></trkpt><trkpt lat="45.55296466923465" lon="10.400544696853103"><ele>187.0</ele><time>2026-04-22T14:25:09Z</time></trkpt><trkpt lat="45.55289242053571" lon="10.400496241877127"><ele>186.0</ele><time>2026-04-22T14:25:10Z</time></trkpt><trkpt lat="45.55280754256888" lon="10.40035924184724"><ele>185.0</ele><time>2026-04-22T14:25:12Z</time></trkpt><trkpt lat="45.55276271258488" lon="10.40029473168517"><ele>184.0</ele><time>2026-04-22T14:25:13Z</time></trkpt><trkpt lat="45.55269957108118" lon="10.40015572129482"><ele>183.0</ele><time>2026-04-22T14:25:15Z</time></trkpt><trkpt lat="45.5526216767902" lon="10.400032825708601"><ele>182.0</ele><time>2026-04-22T14:25:17Z</time></trkpt><trkpt lat="45.55254408576463" lon="10.399911122971673"><ele>182.0</ele><time>2026-04-22T14:25:19Z</time></trkpt><trkpt lat="45.55246567825899" lon="10.399786889613262"><ele>182.0</ele><time>2026-04-22T14:25:21Z</time></trkpt><trkpt lat="45.55238267497808" lon="10.399690073334188"><ele>182.0</ele><time>2026-04-22T14:25:23Z</time></trkpt><trkpt lat="45.552385379959766" lon="10.39952893481662"><ele>182.0</ele><time>2026-04-22T14:25:25Z</time></trkpt><trkpt lat="45.55237846967303" lon="10.39938718877971"><ele>182.0</ele><time>2026-04-22T14:25:27Z</time></trkpt><trkpt lat="45.55240016099004" lon="10.399230003044307"><ele>182.39999999999998</ele><time>2026-04-22T14:25:29Z</time></trkpt><trkpt lat="45.552487472052576" lon="10.399109680237347"><ele>182.79999999999998</ele><time>2026-04-22T14:25:31Z</time></trkpt><trkpt lat="45.55254151158927" lon="10.399057513524976"><ele>183.2</ele><time>2026-04-22T14:25:32Z</time></trkpt><trkpt lat="45.55264725923548" lon="10.399019053979172"><ele>183.6</ele><time>2026-04-22T14:25:34Z</time></trkpt><trkpt lat="45.55274513659586" lon="10.39895982312787"><ele>184.0</ele><time>2026-04-22T14:25:36Z</time></trkpt><trkpt lat="45.55283373982246" lon="10.39892372565859"><ele>184.0</ele><time>2026-04-22T14:25:38Z</time></trkpt><trkpt lat="45.552912381301546" lon="10.398855267112804"><ele>184.0</ele><time>2026-04-22T14:25:40Z</time></trkpt><trkpt lat="45.55299604467813" lon="10.3988148275178"><ele>184.0</ele><time>2026-04-22T14:25:42Z</time></trkpt><trkpt lat="45.55307619651456" lon="10.398775166109154"><ele>184.0</ele><time>2026-04-22T14:25:44Z</time></trkpt><trkpt lat="45.55315902525906" lon="10.398751064718873"><ele>184.0</ele><time>2026-04-22T14:25:46Z</time></trkpt><trkpt lat="45.55325016077234" lon="10.398778085403242"><ele>184.0</ele><time>2026-04-22T14:25:48Z</time></trkpt><trkpt lat="45.5533304546527" lon="10.398832603254625"><ele>184.0</ele><time>2026-04-22T14:25:50Z</time></trkpt><trkpt lat="45.55340878213171" lon="10.398875230209793"><ele>184.0</ele><time>2026-04-22T14:25:52Z</time></trkpt><trkpt lat="45.55348140807986" lon="10.3989188935431"><ele>184.0</ele><time>2026-04-22T14:25:54Z</time></trkpt><trkpt lat="45.553552538743865" lon="10.399004659770624"><ele>184.0</ele><time>2026-04-22T14:25:56Z</time></trkpt><trkpt lat="45.55363702121412" lon="10.399055092881671"><ele>184.0</ele><time>2026-04-22T14:25:58Z</time></trkpt><trkpt lat="45.55372239921459" lon="10.399079216745099"><ele>184.0</ele><time>2026-04-22T14:26:00Z</time></trkpt><trkpt lat="45.5538083417736" lon="10.399122262884587"><ele>184.0</ele><time>2026-04-22T14:26:02Z</time></trkpt><trkpt lat="45.55386784787892" lon="10.39922739367336"><ele>184.0</ele><time>2026-04-22T14:26:04Z</time></trkpt><trkpt lat="45.55396904710397" lon="10.399260101811915"><ele>184.0</ele><time>2026-04-22T14:26:07Z</time></trkpt><trkpt lat="45.5540321953612" lon="10.39930160809525"><ele>184.0</ele><time>2026-04-22T14:26:09Z</time></trkpt><trkpt lat="45.55412127498432" lon="10.399210220895684"><ele>184.0</ele><time>2026-04-22T14:26:12Z</time></trkpt><trkpt lat="45.55416617437247" lon="10.399104610672506"><ele>184.0</ele><time>2026-04-22T14:26:14Z</time></trkpt><trkpt lat="45.55420391150307" lon="10.399024271785798"><ele>184.0</ele><time>2026-04-22T14:26:16Z</time></trkpt><trkpt lat="45.55426075587949" lon="10.398937617201"><ele>184.0</ele><time>2026-04-22T14:26:18Z</time></trkpt><trkpt lat="45.55432088836519" lon="10.398864215150171"><ele>184.0</ele><time>2026-04-22T14:26:20Z</time></trkpt><trkpt lat="45.55438185097847" lon="10.398789488505535"><ele>184.0</ele><time>2026-04-22T14:26:22Z</time></trkpt><trkpt lat="45.5544428781693" lon="10.398716871020413"><ele>184.0</ele><time>2026-04-22T14:26:24Z</time></trkpt><trkpt lat="45.554503006220955" lon="10.398643383269317"><ele>184.5</ele><time>2026-04-22T14:26:26Z</time></trkpt><trkpt lat="45.55456486837927" lon="10.398567515925137"><ele>185.0</ele><time>2026-04-22T14:26:28Z</time></trkpt><trkpt lat="45.55463135333024" lon="10.398485887824776"><ele>185.5</ele><time>2026-04-22T14:26:30Z</time></trkpt><trkpt lat="45.554699720669426" lon="10.398401593521536"><ele>186.0</ele><time>2026-04-22T14:26:32Z</time></trkpt><trkpt lat="45.55476778733599" lon="10.398317657353449"><ele>186.5</ele><time>2026-04-22T14:26:34Z</time></trkpt><trkpt lat="45.554827168971975" lon="10.39821807402638"><ele>187.0</ele><time>2026-04-22T14:26:36Z</time></trkpt><trkpt lat="45.554901991484805" lon="10.398150363533087"><ele>187.0</ele><time>2026-04-22T14:26:38Z</time></trkpt><trkpt lat="45.55497006398443" lon="10.39805509739177"><ele>187.0</ele><time>2026-04-22T14:26:40Z</time></trkpt><trkpt lat="45.555038707366144" lon="10.397964042725908"><ele>187.0</ele><time>2026-04-22T14:26:42Z</time></trkpt><trkpt lat="45.55510951583384" lon="10.39787796475312"><ele>187.0</ele><time>2026-04-22T14:26:44Z</time></trkpt><trkpt lat="45.555168883938585" lon="10.397799414551907"><ele>187.0</ele><time>2026-04-22T14:26:46Z</time></trkpt><trkpt lat="45.555231002030375" lon="10.397724761373336"><ele>187.0</ele><time>2026-04-22T14:26:48Z</time></trkpt><trkpt lat="45.555286225386304" lon="10.397655511835778"><ele>186.83333333333334</ele><time>2026-04-22T14:26:50Z</time></trkpt><trkpt lat="45.55533967694089" lon="10.397605237211865"><ele>186.66666666666669</ele><time>2026-04-22T14:26:52Z</time></trkpt><trkpt lat="45.55542180983273" lon="10.39756474320501"><ele>186.5</ele><time>2026-04-22T14:26:55Z</time></trkpt><trkpt lat="45.55551717563548" lon="10.397540581326421"><ele>186.33333333333334</ele><time>2026-04-22T14:26:58Z</time></trkpt><trkpt lat="45.55559038498112" lon="10.397493273905699"><ele>186.16666666666666</ele><time>2026-04-22T14:27:00Z</time></trkpt><trkpt lat="45.55567318309805" lon="10.397478149071572"><ele>186.0</ele><time>2026-04-22T14:27:02Z</time></trkpt><trkpt lat="45.55574521339496" lon="10.397414555412517"><ele>186.16666666666666</ele><time>2026-04-22T14:27:04Z</time></trkpt><trkpt lat="45.55581353971444" lon="10.397341170937063"><ele>186.33333333333334</ele><time>2026-04-22T14:27:06Z</time></trkpt><trkpt lat="45.55588486943664" lon="10.397286689428096"><ele>186.5</ele><time>2026-04-22T14:27:08Z</time></trkpt><trkpt lat="45.55594964983277" lon="10.397221262980898"><ele>186.66666666666669</ele><time>2026-04-22T14:27:10Z</time></trkpt><trkpt lat="45.55601813655814" lon="10.397165488472648"><ele>186.83333333333334</ele><time>2026-04-22T14:27:12Z</time></trkpt><trkpt lat="45.556082709378344" lon="10.397118921628529"><ele>187.0</ele><time>2026-04-22T14:27:14Z</time></trkpt><trkpt lat="45.55614569367971" lon="10.397074997440127"><ele>188.0</ele><time>2026-04-22T14:27:16Z</time></trkpt><trkpt lat="45.55620695511306" lon="10.397018243452253"><ele>189.0</ele><time>2026-04-22T14:27:18Z</time></trkpt><trkpt lat="45.55627481638968" lon="10.396988030980939"><ele>190.0</ele><time>2026-04-22T14:27:20Z</time></trkpt><trkpt lat="45.55633670015353" lon="10.396951494360756"><ele>191.0</ele><time>2026-04-22T14:27:22Z</time></trkpt><trkpt lat="45.556421632840184" lon="10.396885478440389"><ele>192.0</ele><time>2026-04-22T14:27:25Z</time></trkpt><trkpt lat="45.556480195388346" lon="10.39685077132251"><ele>193.0</ele><time>2026-04-22T14:27:27Z</time></trkpt><trkpt lat="45.55654228876369" lon="10.396832207964806"><ele>194.0</ele><time>2026-04-22T14:27:29Z</time></trkpt><trkpt lat="45.556631408903094" lon="10.39682504035897"><ele>194.00000000000003</ele><time>2026-04-22T14:27:32Z</time></trkpt><trkpt lat="45.55669683216864" lon="10.3968290270113"><ele>194.0</ele><time>2026-04-22T14:27:34Z</time></trkpt><trkpt lat="45.55678783576566" lon="10.396839863335787"><ele>194.0</ele><time>2026-04-22T14:27:37Z</time></trkpt><trkpt lat="45.55685527956494" lon="10.396834926794481"><ele>194.0</ele><time>2026-04-22T14:27:39Z</time></trkpt><trkpt lat="45.556922070758844" lon="10.396832911035515"><ele>194.00000000000003</ele><time>2026-04-22T14:27:41Z</time></trkpt><trkpt lat="45.55701653345439" lon="10.396815865654675"><ele>194.0</ele><time>2026-04-22T14:27:44Z</time></trkpt><trkpt lat="45.557097806982654" lon="10.396800900165728"><ele>194.33333333333334</ele><time>2026-04-22T14:27:47Z</time></trkpt><trkpt lat="45.55715383881424" lon="10.396713216035206"><ele>194.66666666666669</ele><time>2026-04-22T14:27:51Z</time></trkpt><trkpt lat="45.557177480779025" lon="10.396624034440286"><ele>195.0</ele><time>2026-04-22T14:27:54Z</time></trkpt><trkpt lat="45.5571922383106" lon="10.396489068056342"><ele>195.33333333333331</ele><time>2026-04-22T14:27:58Z</time></trkpt><trkpt lat="45.5571552270737" lon="10.396346725913098"><ele>195.66666666666666</ele><time>2026-04-22T14:28:01Z</time></trkpt><trkpt lat="45.55711297870599" lon="10.396256070000684"><ele>196.0</ele><time>2026-04-22T14:28:03Z</time></trkpt><trkpt lat="45.55707067516537" lon="10.396176614367484"><ele>196.16666666666666</ele><time>2026-04-22T14:28:04Z</time></trkpt><trkpt lat="45.5570320506441" lon="10.396100791667365"><ele>196.33333333333331</ele><time>2026-04-22T14:28:05Z</time></trkpt><trkpt lat="45.55709515477507" lon="10.395998369919633"><ele>196.5</ele><time>2026-04-22T14:28:06Z</time></trkpt><trkpt lat="45.557107307206564" lon="10.395893511965172"><ele>196.66666666666669</ele><time>2026-04-22T14:28:08Z</time></trkpt><trkpt lat="45.55711208144738" lon="10.395755346263586"><ele>196.83333333333334</ele><time>2026-04-22T14:28:10Z</time></trkpt><trkpt lat="45.5571219748219" lon="10.395630263702497"><ele>197.0</ele><time>2026-04-22T14:28:12Z</time></trkpt><trkpt lat="45.55711876545228" lon="10.39550375861873"><ele>197.00000000000003</ele><time>2026-04-22T14:28:14Z</time></trkpt><trkpt lat="45.55713201763817" lon="10.395405209191905"><ele>197.0</ele><time>2026-04-22T14:28:16Z</time></trkpt><trkpt lat="45.55713546263278" lon="10.395313553496463"><ele>197.0</ele><time>2026-04-22T14:28:18Z</time></trkpt><trkpt lat="45.55713662955343" lon="10.39517736033589"><ele>197.0</ele><time>2026-04-22T14:28:20Z</time></trkpt><trkpt lat="45.55715147580536" lon="10.395082265348314"><ele>197.00000000000003</ele><time>2026-04-22T14:28:22Z</time></trkpt><trkpt lat="45.55716317496679" lon="10.394976905313596"><ele>197.0</ele><time>2026-04-22T14:28:24Z</time></trkpt><trkpt lat="45.557127492701625" lon="10.394868805481567"><ele>197.0</ele><time>2026-04-22T14:28:26Z</time></trkpt><trkpt lat="45.55710160817893" lon="10.39477556441776"><ele>197.0</ele><time>2026-04-22T14:28:29Z</time></trkpt><trkpt lat="45.55693748609666" lon="10.394820934836577"><ele>197.0</ele><time>2026-04-22T14:28:35Z</time></trkpt><trkpt lat="45.556833524722066" lon="10.394858574242036"><ele>197.0</ele><time>2026-04-22T14:28:37Z</time></trkpt><trkpt lat="45.556760728073236" lon="10.394884938597459"><ele>197.0</ele><time>2026-04-22T14:28:38Z</time></trkpt><trkpt lat="45.556695255316995" lon="10.39491460487498"><ele>195.83333333333334</ele><time>2026-04-22T14:28:39Z</time></trkpt><trkpt lat="45.556624413838726" lon="10.394946703782113"><ele>194.66666666666669</ele><time>2026-04-22T14:28:40Z</time></trkpt><trkpt lat="45.55655138969454" lon="10.394979791684575"><ele>193.5</ele><time>2026-04-22T14:28:41Z</time></trkpt><trkpt lat="45.55647471731724" lon="10.395014532117363"><ele>192.33333333333334</ele><time>2026-04-22T14:28:42Z</time></trkpt><trkpt lat="45.556402414560196" lon="10.395034055751234"><ele>191.16666666666669</ele><time>2026-04-22T14:28:43Z</time></trkpt><trkpt lat="45.556329032107016" lon="10.395059472643204"><ele>190.0</ele><time>2026-04-22T14:28:44Z</time></trkpt><trkpt lat="45.55625712634052" lon="10.395083984778354"><ele>188.66666666666669</ele><time>2026-04-22T14:28:45Z</time></trkpt><trkpt lat="45.55618455265338" lon="10.395110030320936"><ele>187.33333333333334</ele><time>2026-04-22T14:28:46Z</time></trkpt><trkpt lat="45.55610344492756" lon="10.395144557314275"><ele>186.0</ele><time>2026-04-22T14:28:47Z</time></trkpt><trkpt lat="45.5560304496505" lon="10.395176874842686"><ele>184.66666666666666</ele><time>2026-04-22T14:28:48Z</time></trkpt><trkpt lat="45.55595816564838" lon="10.395210676368382"><ele>183.33333333333331</ele><time>2026-04-22T14:28:49Z</time></trkpt><trkpt lat="45.555889362928426" lon="10.395248268223924"><ele>182.0</ele><time>2026-04-22T14:28:50Z</time></trkpt><trkpt lat="45.55582253750754" lon="10.395285175044483"><ele>182.0</ele><time>2026-04-22T14:28:51Z</time></trkpt><trkpt lat="45.555754037050534" lon="10.39532300691918"><ele>182.0</ele><time>2026-04-22T14:28:52Z</time></trkpt><trkpt lat="45.55568822251768" lon="10.395358115863225"><ele>182.0</ele><time>2026-04-22T14:28:53Z</time></trkpt><trkpt lat="45.55557993267833" lon="10.395402079612337"><ele>182.0</ele><time>2026-04-22T14:28:55Z</time></trkpt><trkpt lat="45.55551721018669" lon="10.395414664569934"><ele>182.0</ele><time>2026-04-22T14:28:58Z</time></trkpt><trkpt lat="45.555546460613606" lon="10.395613353790967"><ele>182.6</ele><time>2026-04-22T14:29:00Z</time></trkpt><trkpt lat="45.55558465706917" lon="10.395723457958534"><ele>183.2</ele><time>2026-04-22T14:29:02Z</time></trkpt><trkpt lat="45.55563986983593" lon="10.395822767452616"><ele>183.8</ele><time>2026-04-22T14:29:04Z</time></trkpt><trkpt lat="45.55569288722656" lon="10.395928566791294"><ele>184.4</ele><time>2026-04-22T14:29:06Z</time></trkpt><trkpt lat="45.55573676237011" lon="10.396045845004716"><ele>185.0</ele><time>2026-04-22T14:29:08Z</time></trkpt><trkpt lat="45.55578870111087" lon="10.396157623897178"><ele>185.0</ele><time>2026-04-22T14:29:10Z</time></trkpt><trkpt lat="45.555839799044854" lon="10.396267244962642"><ele>185.0</ele><time>2026-04-22T14:29:12Z</time></trkpt><trkpt lat="45.5558865694835" lon="10.396376104590844"><ele>185.0</ele><time>2026-04-22T14:29:14Z</time></trkpt><trkpt lat="45.555938015091186" lon="10.396476649532998"><ele>185.0</ele><time>2026-04-22T14:29:16Z</time></trkpt><trkpt lat="45.555969084173626" lon="10.396586478034429"><ele>185.0</ele><time>2026-04-22T14:29:18Z</time></trkpt><trkpt lat="45.55601814370409" lon="10.396690278325691"><ele>185.0</ele><time>2026-04-22T14:29:20Z</time></trkpt><trkpt lat="45.5560669787211" lon="10.396795528771163"><ele>185.33333333333331</ele><time>2026-04-22T14:29:22Z</time></trkpt><trkpt lat="45.55610594112928" lon="10.396911121096021"><ele>185.66666666666666</ele><time>2026-04-22T14:29:24Z</time></trkpt><trkpt lat="45.556144673101585" lon="10.397004965901068"><ele>186.0</ele><time>2026-04-22T14:29:26Z</time></trkpt><trkpt lat="45.55620348288455" lon="10.397053536530404"><ele>186.33333333333334</ele><time>2026-04-22T14:29:46Z</time></trkpt><trkpt lat="45.55628127333535" lon="10.397026709240532"><ele>186.66666666666669</ele><time>2026-04-22T14:29:48Z</time></trkpt><trkpt lat="45.55636290324445" lon="10.396971406581162"><ele>187.0</ele><time>2026-04-22T14:29:50Z</time></trkpt><trkpt lat="45.55644874182238" lon="10.396920021206109"><ele>188.16666666666669</ele><time>2026-04-22T14:29:52Z</time></trkpt><trkpt lat="45.55652660406338" lon="10.396869726621915"><ele>189.33333333333334</ele><time>2026-04-22T14:29:54Z</time></trkpt><trkpt lat="45.55661170109667" lon="10.396840524488942"><ele>190.5</ele><time>2026-04-22T14:29:56Z</time></trkpt><trkpt lat="45.5566996932092" lon="10.396840593650124"><ele>191.66666666666669</ele><time>2026-04-22T14:29:58Z</time></trkpt><trkpt lat="45.556783194909286" lon="10.396859625954955"><ele>192.83333333333334</ele><time>2026-04-22T14:30:00Z</time></trkpt><trkpt lat="45.556860976168416" lon="10.396870641427308"><ele>194.0</ele><time>2026-04-22T14:30:02Z</time></trkpt><trkpt lat="45.55694267957464" lon="10.396873570373318"><ele>194.0</ele><time>2026-04-22T14:30:04Z</time></trkpt><trkpt lat="45.55701049041219" lon="10.396867005151565"><ele>194.0</ele><time>2026-04-22T14:30:06Z</time></trkpt><trkpt lat="45.55707335267683" lon="10.396845503254232"><ele>194.0</ele><time>2026-04-22T14:30:09Z</time></trkpt><trkpt lat="45.55713515794214" lon="10.396907350621202"><ele>194.0</ele><time>2026-04-22T14:30:15Z</time></trkpt><trkpt lat="45.557185933559346" lon="10.396992792866055"><ele>194.0</ele><time>2026-04-22T14:30:17Z</time></trkpt><trkpt lat="45.55725508192511" lon="10.397083900935845"><ele>194.0</ele><time>2026-04-22T14:30:20Z</time></trkpt><trkpt lat="45.557295481683866" lon="10.397156735617212"><ele>194.0</ele><time>2026-04-22T14:30:22Z</time></trkpt><trkpt lat="45.5573601393677" lon="10.397239122780757"><ele>195.0</ele><time>2026-04-22T14:30:24Z</time></trkpt><trkpt lat="45.55742257221603" lon="10.39732451856543"><ele>196.0</ele><time>2026-04-22T14:30:27Z</time></trkpt><trkpt lat="45.55744336603569" lon="10.39741455340893"><ele>197.0</ele><time>2026-04-22T14:30:30Z</time></trkpt><trkpt lat="45.55738879706554" lon="10.397460846034454"><ele>198.0</ele><time>2026-04-22T14:30:32Z</time></trkpt><trkpt lat="45.557327820079735" lon="10.397534702418145"><ele>199.0</ele><time>2026-04-22T14:30:35Z</time></trkpt><trkpt lat="45.5573120555246" lon="10.397641868475201"><ele>200.0</ele><time>2026-04-22T14:30:37Z</time></trkpt><trkpt lat="45.55729199422935" lon="10.397732262235222"><ele>201.0</ele><time>2026-04-22T14:30:47Z</time></trkpt><trkpt lat="45.557280818067525" lon="10.397839561244796"><ele>201.0</ele><time>2026-04-22T14:30:51Z</time></trkpt><trkpt lat="45.55724314522489" lon="10.397944002262143"><ele>201.0</ele><time>2026-04-22T14:30:55Z</time></trkpt><trkpt lat="45.55722013731871" lon="10.398047809418438"><ele>201.0</ele><time>2026-04-22T14:30:59Z</time></trkpt><trkpt lat="45.55719269729211" lon="10.398139106760693"><ele>201.0</ele><time>2026-04-22T14:31:03Z</time></trkpt><trkpt lat="45.55718054160012" lon="10.398227329968346"><ele>201.0</ele><time>2026-04-22T14:31:08Z</time></trkpt><trkpt lat="45.55719047675843" lon="10.398321244170344"><ele>201.0</ele><time>2026-04-22T14:31:13Z</time></trkpt><trkpt lat="45.557181084565805" lon="10.398434212360174"><ele>201.0</ele><time>2026-04-22T14:31:18Z</time></trkpt><trkpt lat="45.557157801760255" lon="10.39853878541447"><ele>201.0</ele><time>2026-04-22T14:31:23Z</time></trkpt><trkpt lat="45.55715950531686" lon="10.398647264125227"><ele>201.0</ele><time>2026-04-22T14:31:28Z</time></trkpt><trkpt lat="45.55715878969043" lon="10.398744527401593"><ele>201.0</ele><time>2026-04-22T14:31:33Z</time></trkpt><trkpt lat="45.5571199562974" lon="10.398818532773522"><ele>201.0</ele><time>2026-04-22T14:31:37Z</time></trkpt><trkpt lat="45.55707579282008" lon="10.398896188110756"><ele>201.0</ele><time>2026-04-22T14:31:41Z</time></trkpt><trkpt lat="45.557044039989805" lon="10.399000138994808"><ele>201.0</ele><time>2026-04-22T14:31:46Z</time></trkpt><trkpt lat="45.55702057164016" lon="10.399103947080578"><ele>201.0</ele><time>2026-04-22T14:31:52Z</time></trkpt><trkpt lat="45.557012660957085" lon="10.399197864862542"><ele>201.0</ele><time>2026-04-22T14:32:07Z</time></trkpt><trkpt lat="45.556990957048754" lon="10.399308291102217"><ele>201.0</ele><time>2026-04-22T14:32:10Z</time></trkpt><trkpt lat="45.55700681760277" lon="10.399405025904505"><ele>201.0</ele><time>2026-04-22T14:32:13Z</time></trkpt><trkpt lat="45.55701430258328" lon="10.399502156516867"><ele>201.0</ele><time>2026-04-22T14:32:17Z</time></trkpt><trkpt lat="45.55762799675057" lon="10.400792279466183"><ele>206.33333333333334</ele><time>2026-04-22T14:34:08Z</time></trkpt><trkpt lat="45.55769479824638" lon="10.400846209896038"><ele>211.66666666666669</ele><time>2026-04-22T14:34:12Z</time></trkpt><trkpt lat="45.55774937147289" lon="10.400904169595838"><ele>217.0</ele><time>2026-04-22T14:34:15Z</time></trkpt><trkpt lat="45.5578095424543" lon="10.400968834758253"><ele>222.33333333333334</ele><time>2026-04-22T14:34:18Z</time></trkpt><trkpt lat="45.5578757571603" lon="10.40103586881575"><ele>227.66666666666669</ele><time>2026-04-22T14:34:21Z</time></trkpt><trkpt lat="45.55793489110642" lon="10.401118810793083"><ele>233.0</ele><time>2026-04-22T14:34:24Z</time></trkpt><trkpt lat="45.558007268914956" lon="10.40117390544931"><ele>235.16666666666669</ele><time>2026-04-22T14:34:27Z</time></trkpt><trkpt lat="45.558071263993774" lon="10.401220613126032"><ele>237.33333333333334</ele><time>2026-04-22T14:34:30Z</time></trkpt><trkpt lat="45.55812925159265" lon="10.401282485476745"><ele>239.5</ele><time>2026-04-22T14:34:33Z</time></trkpt><trkpt lat="45.55820644917192" lon="10.401330336528318"><ele>241.66666666666669</ele><time>2026-04-22T14:34:36Z</time></trkpt><trkpt lat="45.558256600418716" lon="10.401393436765115"><ele>243.83333333333334</ele><time>2026-04-22T14:34:39Z</time></trkpt><trkpt lat="45.558319950847476" lon="10.401464124052492"><ele>246.0</ele><time>2026-04-22T14:34:42Z</time></trkpt><trkpt lat="45.55839055661547" lon="10.40153696198426"><ele>246.0</ele><time>2026-04-22T14:34:46Z</time></trkpt><trkpt lat="45.55843637564674" lon="10.401618863429158"><ele>246.0</ele><time>2026-04-22T14:34:49Z</time></trkpt><trkpt lat="45.55847095178457" lon="10.401697147180634"><ele>246.0</ele><time>2026-04-22T14:34:51Z</time></trkpt><trkpt lat="45.55851153264701" lon="10.40180761468543"><ele>246.0</ele><time>2026-04-22T14:34:54Z</time></trkpt><trkpt lat="45.55854843472771" lon="10.401901253824953"><ele>246.0</ele><time>2026-04-22T14:34:56Z</time></trkpt><trkpt lat="45.55857620334322" lon="10.401996206466297"><ele>246.0</ele><time>2026-04-22T14:34:58Z</time></trkpt><trkpt lat="45.55859515016401" lon="10.402102910618128"><ele>246.0</ele><time>2026-04-22T14:35:00Z</time></trkpt><trkpt lat="45.558622837358264" lon="10.402209089393022"><ele>246.0</ele><time>2026-04-22T14:35:02Z</time></trkpt><trkpt lat="45.5586451999345" lon="10.402312265826142"><ele>246.0</ele><time>2026-04-22T14:35:04Z</time></trkpt><trkpt lat="45.558657587836684" lon="10.402418883155757"><ele>246.0</ele><time>2026-04-22T14:35:06Z</time></trkpt><trkpt lat="45.55868896923458" lon="10.402521698267025"><ele>246.0</ele><time>2026-04-22T14:35:08Z</time></trkpt><trkpt lat="45.55873420139305" lon="10.402611876212262"><ele>246.0</ele><time>2026-04-22T14:35:10Z</time></trkpt><trkpt lat="45.55877570266134" lon="10.402707522634932"><ele>246.0</ele><time>2026-04-22T14:35:12Z</time></trkpt><trkpt lat="45.558829420954694" lon="10.402771610349712"><ele>246.0</ele><time>2026-04-22T14:35:14Z</time></trkpt><trkpt lat="45.55888773055333" lon="10.402845519548086"><ele>246.0</ele><time>2026-04-22T14:35:16Z</time></trkpt><trkpt lat="45.5589258877528" lon="10.402921437708125"><ele>246.0</ele><time>2026-04-22T14:35:18Z</time></trkpt><trkpt lat="45.558993639047216" lon="10.402985406443065"><ele>246.0</ele><time>2026-04-22T14:35:20Z</time></trkpt><trkpt lat="45.55905656287171" lon="10.403049657255083"><ele>246.0</ele><time>2026-04-22T14:35:22Z</time></trkpt><trkpt lat="45.55914543943627" lon="10.403117613941014"><ele>246.0</ele><time>2026-04-22T14:35:24Z</time></trkpt><trkpt lat="45.55922794590959" lon="10.40319306213925"><ele>246.00000000000003</ele><time>2026-04-22T14:35:26Z</time></trkpt><trkpt lat="45.559301403561534" lon="10.40327648140677"><ele>246.00000000000003</ele><time>2026-04-22T14:35:28Z</time></trkpt><trkpt lat="45.55936999627316" lon="10.403369047722547"><ele>246.0</ele><time>2026-04-22T14:35:30Z</time></trkpt><trkpt lat="45.559428999151" lon="10.403465693300298"><ele>246.0</ele><time>2026-04-22T14:35:32Z</time></trkpt><trkpt lat="45.55948924229009" lon="10.40356015557979"><ele>246.8</ele><time>2026-04-22T14:35:34Z</time></trkpt><trkpt lat="45.559550490642415" lon="10.403645959362871"><ele>247.60000000000002</ele><time>2026-04-22T14:35:36Z</time></trkpt><trkpt lat="45.559610771917164" lon="10.403743156805843"><ele>248.4</ele><time>2026-04-22T14:35:38Z</time></trkpt><trkpt lat="45.559666927881494" lon="10.40384693034775"><ele>249.2</ele><time>2026-04-22T14:35:40Z</time></trkpt><trkpt lat="45.55972111007667" lon="10.40396262942185"><ele>250.0</ele><time>2026-04-22T14:35:42Z</time></trkpt><trkpt lat="45.55975194006518" lon="10.404087195034057"><ele>250.0</ele><time>2026-04-22T14:35:44Z</time></trkpt><trkpt lat="45.55978186239965" lon="10.404209634394782"><ele>250.0</ele><time>2026-04-22T14:35:46Z</time></trkpt><trkpt lat="45.55982937326709" lon="10.404332295518634"><ele>250.0</ele><time>2026-04-22T14:35:48Z</time></trkpt><trkpt lat="45.559877978785345" lon="10.404455183727396"><ele>250.0</ele><time>2026-04-22T14:35:50Z</time></trkpt><trkpt lat="45.55993601167279" lon="10.404550854032548"><ele>250.0</ele><time>2026-04-22T14:35:52Z</time></trkpt><trkpt lat="45.55999834261277" lon="10.404652839269026"><ele>249.4</ele><time>2026-04-22T14:35:54Z</time></trkpt><trkpt lat="45.56007474366022" lon="10.404742237738542"><ele>248.8</ele><time>2026-04-22T14:35:56Z</time></trkpt><trkpt lat="45.560151034839556" lon="10.404824752617243"><ele>248.2</ele><time>2026-04-22T14:35:58Z</time></trkpt><trkpt lat="45.560237584507774" lon="10.404905081799592"><ele>247.6</ele><time>2026-04-22T14:36:00Z</time></trkpt><trkpt lat="45.560318438607325" lon="10.404996571969924"><ele>247.0</ele><time>2026-04-22T14:36:02Z</time></trkpt><trkpt lat="45.56040534272353" lon="10.405077974556315"><ele>247.0</ele><time>2026-04-22T14:36:04Z</time></trkpt><trkpt lat="45.560493505827694" lon="10.405165775963187"><ele>247.0</ele><time>2026-04-22T14:36:06Z</time></trkpt><trkpt lat="45.56058779062906" lon="10.405266214293194"><ele>247.0</ele><time>2026-04-22T14:36:08Z</time></trkpt><trkpt lat="45.56068322908472" lon="10.405359994928444"><ele>247.0</ele><time>2026-04-22T14:36:10Z</time></trkpt><trkpt lat="45.560782340549515" lon="10.405452530425961"><ele>246.2</ele><time>2026-04-22T14:36:12Z</time></trkpt><trkpt lat="45.56087247646042" lon="10.405548352273382"><ele>245.39999999999998</ele><time>2026-04-22T14:36:14Z</time></trkpt><trkpt lat="45.56096018173561" lon="10.405641890589443"><ele>244.60000000000002</ele><time>2026-04-22T14:36:16Z</time></trkpt><trkpt lat="45.56105239511447" lon="10.405726630788031"><ele>243.8</ele><time>2026-04-22T14:36:18Z</time></trkpt><trkpt lat="45.561135760972206" lon="10.405814729597681"><ele>243.0</ele><time>2026-04-22T14:36:20Z</time></trkpt><trkpt lat="45.56122093743919" lon="10.405905956535594"><ele>243.0</ele><time>2026-04-22T14:36:22Z</time></trkpt><trkpt lat="45.5613108127104" lon="10.405975461610726"><ele>243.0</ele><time>2026-04-22T14:36:24Z</time></trkpt><trkpt lat="45.561414216363524" lon="10.405994665617863"><ele>243.0</ele><time>2026-04-22T14:36:26Z</time></trkpt><trkpt lat="45.56150937285434" lon="10.40596902011462"><ele>243.0</ele><time>2026-04-22T14:36:28Z</time></trkpt><trkpt lat="45.56158901197061" lon="10.40588575973907"><ele>243.0</ele><time>2026-04-22T14:36:30Z</time></trkpt><trkpt lat="45.56165064943847" lon="10.405774222625379"><ele>243.0</ele><time>2026-04-22T14:36:32Z</time></trkpt><trkpt lat="45.56170391308704" lon="10.4056533445816"><ele>243.0</ele><time>2026-04-22T14:36:34Z</time></trkpt><trkpt lat="45.561763711054596" lon="10.405537870445373"><ele>243.0</ele><time>2026-04-22T14:36:36Z</time></trkpt><trkpt lat="45.561825243458586" lon="10.405416584669174"><ele>243.0</ele><time>2026-04-22T14:36:38Z</time></trkpt><trkpt lat="45.56188429856501" lon="10.405285239590153"><ele>243.0</ele><time>2026-04-22T14:36:40Z</time></trkpt><trkpt lat="45.56194864410059" lon="10.405159567137211"><ele>243.8</ele><time>2026-04-22T14:36:42Z</time></trkpt><trkpt lat="45.56201724362283" lon="10.405031163856025"><ele>244.60000000000002</ele><time>2026-04-22T14:36:44Z</time></trkpt><trkpt lat="45.56208467037011" lon="10.404900847345267"><ele>245.39999999999998</ele><time>2026-04-22T14:36:46Z</time></trkpt><trkpt lat="45.56214884472655" lon="10.404779050700617"><ele>246.2</ele><time>2026-04-22T14:36:48Z</time></trkpt><trkpt lat="45.56221171211598" lon="10.404662274220945"><ele>247.0</ele><time>2026-04-22T14:36:50Z</time></trkpt><trkpt lat="45.5623123802495" lon="10.4046469774148"><ele>247.39999999999998</ele><time>2026-04-22T14:36:52Z</time></trkpt><trkpt lat="45.56238650188313" lon="10.404768666643337"><ele>247.79999999999998</ele><time>2026-04-22T14:36:54Z</time></trkpt><trkpt lat="45.56245578862357" lon="10.404878868275182"><ele>248.2</ele><time>2026-04-22T14:36:56Z</time></trkpt><trkpt lat="45.562532384278235" lon="10.404975800486092"><ele>248.6</ele><time>2026-04-22T14:36:58Z</time></trkpt><trkpt lat="45.56261309980485" lon="10.405070380995872"><ele>249.0</ele><time>2026-04-22T14:37:00Z</time></trkpt><trkpt lat="45.56269393063374" lon="10.405157319712796"><ele>249.0</ele><time>2026-04-22T14:37:02Z</time></trkpt><trkpt lat="45.56277582384166" lon="10.405239707764743"><ele>248.99999999999997</ele><time>2026-04-22T14:37:04Z</time></trkpt><trkpt lat="45.56285115937554" lon="10.405334215278973"><ele>248.99999999999997</ele><time>2026-04-22T14:37:06Z</time></trkpt><trkpt lat="45.56292349433194" lon="10.405431498591318"><ele>249.0</ele><time>2026-04-22T14:37:08Z</time></trkpt><trkpt lat="45.56298010246477" lon="10.405536982098546"><ele>249.0</ele><time>2026-04-22T14:37:10Z</time></trkpt><trkpt lat="45.56302943224793" lon="10.405643502128283"><ele>249.66666666666666</ele><time>2026-04-22T14:37:12Z</time></trkpt><trkpt lat="45.56307951419718" lon="10.405750399586776"><ele>250.33333333333331</ele><time>2026-04-22T14:37:14Z</time></trkpt><trkpt lat="45.563111724294" lon="10.405855642786229"><ele>251.0</ele><time>2026-04-22T14:37:16Z</time></trkpt><trkpt lat="45.563152478280685" lon="10.405945583086062"><ele>251.66666666666666</ele><time>2026-04-22T14:37:18Z</time></trkpt><trkpt lat="45.56318521634589" lon="10.406032212746856"><ele>252.33333333333331</ele><time>2026-04-22T14:37:20Z</time></trkpt><trkpt lat="45.563205982575575" lon="10.40613620990778"><ele>253.0</ele><time>2026-04-22T14:37:23Z</time></trkpt><trkpt lat="45.56323566177497" lon="10.406242116253686"><ele>252.83333333333331</ele><time>2026-04-22T14:37:26Z</time></trkpt><trkpt lat="45.56324040697711" lon="10.406368732871737"><ele>252.66666666666666</ele><time>2026-04-22T14:37:29Z</time></trkpt><trkpt lat="45.56324444836803" lon="10.406461797626202"><ele>252.5</ele><time>2026-04-22T14:37:31Z</time></trkpt><trkpt lat="45.56324334851465" lon="10.406581346307489"><ele>252.33333333333331</ele><time>2026-04-22T14:37:33Z</time></trkpt><trkpt lat="45.563276382342764" lon="10.406706517637529"><ele>252.16666666666666</ele><time>2026-04-22T14:37:35Z</time></trkpt><trkpt lat="45.56333545261296" lon="10.406818754713695"><ele>252.0</ele><time>2026-04-22T14:37:37Z</time></trkpt><trkpt lat="45.56337028064238" lon="10.406920387220836"><ele>252.0</ele><time>2026-04-22T14:37:39Z</time></trkpt><trkpt lat="45.563421154096204" lon="10.407010774047151"><ele>252.0</ele><time>2026-04-22T14:37:41Z</time></trkpt><trkpt lat="45.56347581318437" lon="10.407111829432024"><ele>252.0</ele><time>2026-04-22T14:37:43Z</time></trkpt><trkpt lat="45.563538012581915" lon="10.40721291017278"><ele>252.0</ele><time>2026-04-22T14:37:45Z</time></trkpt><trkpt lat="45.563611913848526" lon="10.407305722521397"><ele>252.0</ele><time>2026-04-22T14:37:47Z</time></trkpt><trkpt lat="45.56368294715701" lon="10.40739997617595"><ele>253.0</ele><time>2026-04-22T14:37:49Z</time></trkpt><trkpt lat="45.563756809144564" lon="10.407486799042339"><ele>254.0</ele><time>2026-04-22T14:37:51Z</time></trkpt><trkpt lat="45.563838638236696" lon="10.407583589981707"><ele>255.0</ele><time>2026-04-22T14:37:53Z</time></trkpt><trkpt lat="45.563923924211636" lon="10.407676043133042"><ele>256.0</ele><time>2026-04-22T14:37:55Z</time></trkpt><trkpt lat="45.56399152540884" lon="10.407745632677388"><ele>257.0</ele><time>2026-04-22T14:37:57Z</time></trkpt><trkpt lat="45.56405640705275" lon="10.4078277944896"><ele>257.0</ele><time>2026-04-22T14:37:59Z</time></trkpt><trkpt lat="45.56410884647357" lon="10.407919526669797"><ele>257.0</ele><time>2026-04-22T14:38:01Z</time></trkpt><trkpt lat="45.56417360801345" lon="10.408005713149427"><ele>257.0</ele><time>2026-04-22T14:38:03Z</time></trkpt><trkpt lat="45.56421872657291" lon="10.40809709279163"><ele>257.0</ele><time>2026-04-22T14:38:05Z</time></trkpt><trkpt lat="45.56421431584975" lon="10.408229747358932"><ele>257.0</ele><time>2026-04-22T14:38:07Z</time></trkpt><trkpt lat="45.56419162206179" lon="10.408326289425942"><ele>257.0</ele><time>2026-04-22T14:38:09Z</time></trkpt><trkpt lat="45.564182587124826" lon="10.4084206548402"><ele>257.5</ele><time>2026-04-22T14:38:11Z</time></trkpt><trkpt lat="45.56417552869381" lon="10.408524295801541"><ele>258.0</ele><time>2026-04-22T14:38:13Z</time></trkpt><trkpt lat="45.56415022555296" lon="10.408640565007342"><ele>258.5</ele><time>2026-04-22T14:38:16Z</time></trkpt><trkpt lat="45.5641051665096" lon="10.408772714120632"><ele>259.0</ele><time>2026-04-22T14:38:19Z</time></trkpt><trkpt lat="45.56406108593574" lon="10.408881418234436"><ele>259.5</ele><time>2026-04-22T14:38:21Z</time></trkpt><trkpt lat="45.56401576930519" lon="10.40897830712396"><ele>260.0</ele><time>2026-04-22T14:38:23Z</time></trkpt><trkpt lat="45.56398078228301" lon="10.409069968331703"><ele>260.5</ele><time>2026-04-22T14:38:25Z</time></trkpt><trkpt lat="45.56396847238245" lon="10.40919415347824"><ele>261.0</ele><time>2026-04-22T14:38:28Z</time></trkpt><trkpt lat="45.56403332743331" lon="10.409264334646378"><ele>261.5</ele><time>2026-04-22T14:38:32Z</time></trkpt><trkpt lat="45.564090059849455" lon="10.409324688014255"><ele>262.0</ele><time>2026-04-22T14:38:35Z</time></trkpt><trkpt lat="45.56412268674236" lon="10.409408743511511"><ele>262.5</ele><time>2026-04-22T14:38:37Z</time></trkpt><trkpt lat="45.56415685123576" lon="10.409512548570074"><ele>263.0</ele><time>2026-04-22T14:38:39Z</time></trkpt><trkpt lat="45.56420312984031" lon="10.409625931908728"><ele>263.6</ele><time>2026-04-22T14:38:41Z</time></trkpt><trkpt lat="45.56425410487483" lon="10.409749830387167"><ele>264.20000000000005</ele><time>2026-04-22T14:38:43Z</time></trkpt><trkpt lat="45.56430720915216" lon="10.409867844261354"><ele>264.8</ele><time>2026-04-22T14:38:45Z</time></trkpt><trkpt lat="45.56436395672567" lon="10.409991044671989"><ele>265.40000000000003</ele><time>2026-04-22T14:38:47Z</time></trkpt><trkpt lat="45.56441405261833" lon="10.410108405885893"><ele>266.0</ele><time>2026-04-22T14:38:49Z</time></trkpt><trkpt lat="45.5644418748498" lon="10.410235327325287"><ele>266.0</ele><time>2026-04-22T14:38:51Z</time></trkpt><trkpt lat="45.56442895133571" lon="10.410379866888563"><ele>266.0</ele><time>2026-04-22T14:38:53Z</time></trkpt><trkpt lat="45.56438585580973" lon="10.410460928516263"><ele>266.0</ele><time>2026-04-22T14:38:54Z</time></trkpt><trkpt lat="45.564357886142474" lon="10.41054733512521"><ele>266.0</ele><time>2026-04-22T14:38:55Z</time></trkpt><trkpt lat="45.564357749099294" lon="10.410638292810368"><ele>266.0</ele><time>2026-04-22T14:38:56Z</time></trkpt><trkpt lat="45.56436083641598" lon="10.410739580046762"><ele>266.0</ele><time>2026-04-22T14:38:57Z</time></trkpt><trkpt lat="45.56437795533051" lon="10.410847821073533"><ele>266.5</ele><time>2026-04-22T14:38:58Z</time></trkpt><trkpt lat="45.56441055259351" lon="10.41096260117515"><ele>267.0</ele><time>2026-04-22T14:38:59Z</time></trkpt><trkpt lat="45.56444560896184" lon="10.411066922891141"><ele>267.5</ele><time>2026-04-22T14:39:00Z</time></trkpt><trkpt lat="45.5644831858583" lon="10.411165161640536"><ele>268.0</ele><time>2026-04-22T14:39:01Z</time></trkpt><trkpt lat="45.56452990681297" lon="10.411250873731207"><ele>268.5</ele><time>2026-04-22T14:39:02Z</time></trkpt><trkpt lat="45.56457211040922" lon="10.411349002321764"><ele>269.0</ele><time>2026-04-22T14:39:03Z</time></trkpt><trkpt lat="45.56461123275364" lon="10.411434808747817"><ele>267.14285714285717</ele><time>2026-04-22T14:39:04Z</time></trkpt><trkpt lat="45.56464829572859" lon="10.411511594377737"><ele>265.28571428571433</ele><time>2026-04-22T14:39:05Z</time></trkpt><trkpt lat="45.56468993112135" lon="10.411588584711927"><ele>263.42857142857144</ele><time>2026-04-22T14:39:06Z</time></trkpt><trkpt lat="45.56471760930035" lon="10.411680738116235"><ele>261.57142857142856</ele><time>2026-04-22T14:39:07Z</time></trkpt><trkpt lat="45.56475064396626" lon="10.411759581392722"><ele>259.71428571428567</ele><time>2026-04-22T14:39:08Z</time></trkpt><trkpt lat="45.56477614556589" lon="10.41187490197103"><ele>257.85714285714283</ele><time>2026-04-22T14:39:10Z</time></trkpt><trkpt lat="45.56473862057402" lon="10.411973518819453"><ele>256.0</ele><time>2026-04-22T14:39:12Z</time></trkpt><trkpt lat="45.56468688565132" lon="10.41210859019816"><ele>256.16666666666663</ele><time>2026-04-22T14:39:14Z</time></trkpt><trkpt lat="45.56464543310526" lon="10.412196577766798"><ele>256.3333333333333</ele><time>2026-04-22T14:39:16Z</time></trkpt><trkpt lat="45.564615298344606" lon="10.412320442997283"><ele>256.5</ele><time>2026-04-22T14:39:19Z</time></trkpt><trkpt lat="45.56460337759269" lon="10.412436153463226"><ele>256.6666666666667</ele><time>2026-04-22T14:39:21Z</time></trkpt><trkpt lat="45.56459903953751" lon="10.412541484740013"><ele>256.83333333333337</ele><time>2026-04-22T14:39:23Z</time></trkpt><trkpt lat="45.56460472388842" lon="10.41267141355622"><ele>257.0</ele><time>2026-04-22T14:39:25Z</time></trkpt><trkpt lat="45.564618640830204" lon="10.412762996474"><ele>257.0</ele><time>2026-04-22T14:39:26Z</time></trkpt><trkpt lat="45.56467115224683" lon="10.412876556940995"><ele>257.0</ele><time>2026-04-22T14:39:28Z</time></trkpt><trkpt lat="45.564719141135555" lon="10.412969984441212"><ele>257.0</ele><time>2026-04-22T14:39:31Z</time></trkpt><trkpt lat="45.56478344829594" lon="10.413080208743214"><ele>257.0</ele><time>2026-04-22T14:39:34Z</time></trkpt><trkpt lat="45.56484416443957" lon="10.413182117074323"><ele>257.0</ele><time>2026-04-22T14:39:36Z</time></trkpt><trkpt lat="45.564897668228085" lon="10.413268668486738"><ele>257.5</ele><time>2026-04-22T14:39:39Z</time></trkpt><trkpt lat="45.56497441720777" lon="10.413354785946378"><ele>258.0</ele><time>2026-04-22T14:39:42Z</time></trkpt><trkpt lat="45.56501634444247" lon="10.41345384146034"><ele>258.5</ele><time>2026-04-22T14:39:44Z</time></trkpt><trkpt lat="45.565069534571585" lon="10.413536610932741"><ele>259.0</ele><time>2026-04-22T14:39:46Z</time></trkpt><trkpt lat="45.56511898310951" lon="10.413613535906276"><ele>259.5</ele><time>2026-04-22T14:39:48Z</time></trkpt><trkpt lat="45.56518054808501" lon="10.413709309908558"><ele>260.0</ele><time>2026-04-22T14:39:51Z</time></trkpt><trkpt lat="45.565250873113804" lon="10.413783733567197"><ele>259.5</ele><time>2026-04-22T14:39:54Z</time></trkpt><trkpt lat="45.56529509540412" lon="10.413887506225976"><ele>259.0</ele><time>2026-04-22T14:39:57Z</time></trkpt><trkpt lat="45.56536064000364" lon="10.413972453619202"><ele>258.5</ele><time>2026-04-22T14:40:00Z</time></trkpt><trkpt lat="45.56540192718578" lon="10.414052631143845"><ele>258.0</ele><time>2026-04-22T14:40:03Z</time></trkpt><trkpt lat="45.565462792851534" lon="10.414122101787632"><ele>257.5</ele><time>2026-04-22T14:40:06Z</time></trkpt><trkpt lat="45.56551395705033" lon="10.414188537937402"><ele>257.0</ele><time>2026-04-22T14:40:09Z</time></trkpt><trkpt lat="45.565569941087205" lon="10.414261506403555"><ele>257.0</ele><time>2026-04-22T14:40:12Z</time></trkpt><trkpt lat="45.56562499311591" lon="10.414330711174088"><ele>257.0</ele><time>2026-04-22T14:40:14Z</time></trkpt><trkpt lat="45.56569543529087" lon="10.414432783519425"><ele>257.0</ele><time>2026-04-22T14:40:17Z</time></trkpt><trkpt lat="45.565752690106656" lon="10.414510507290776"><ele>257.0</ele><time>2026-04-22T14:40:19Z</time></trkpt><trkpt lat="45.56582228339139" lon="10.414582569860018"><ele>257.0</ele><time>2026-04-22T14:40:21Z</time></trkpt><trkpt lat="45.565888120803145" lon="10.414665545138428"><ele>257.0</ele><time>2026-04-22T14:40:23Z</time></trkpt><trkpt lat="45.56594531188588" lon="10.414755405049458"><ele>258.57142857142856</ele><time>2026-04-22T14:40:25Z</time></trkpt><trkpt lat="45.56598923587157" lon="10.414821981652326"><ele>260.14285714285717</ele><time>2026-04-22T14:40:28Z</time></trkpt><trkpt lat="45.56599734603642" lon="10.414939734188216"><ele>261.7142857142857</ele><time>2026-04-22T14:40:31Z</time></trkpt><trkpt lat="45.566059823402576" lon="10.415016175351097"><ele>263.2857142857143</ele><time>2026-04-22T14:40:33Z</time></trkpt><trkpt lat="45.56605724140067" lon="10.415106114513629"><ele>264.85714285714283</ele><time>2026-04-22T14:40:36Z</time></trkpt><trkpt lat="45.566070448846226" lon="10.415196775058414"><ele>266.42857142857144</ele><time>2026-04-22T14:40:43Z</time></trkpt><trkpt lat="45.56609811492987" lon="10.415289216371438"><ele>268.0</ele><time>2026-04-22T14:40:54Z</time></trkpt><trkpt lat="45.56614569687232" lon="10.41538741814747"><ele>267.0</ele><time>2026-04-22T14:40:58Z</time></trkpt><trkpt lat="45.56615601178537" lon="10.415504590756473"><ele>266.0</ele><time>2026-04-22T14:41:01Z</time></trkpt><trkpt lat="45.56622001092418" lon="10.41560339491149"><ele>265.0</ele><time>2026-04-22T14:41:04Z</time></trkpt><trkpt lat="45.56624932851521" lon="10.415716783552622"><ele>264.0</ele><time>2026-04-22T14:41:07Z</time></trkpt><trkpt lat="45.566291576958285" lon="10.41581484873449"><ele>263.0</ele><time>2026-04-22T14:41:10Z</time></trkpt><trkpt lat="45.566313087215406" lon="10.41590171192834"><ele>262.0</ele><time>2026-04-22T14:41:12Z</time></trkpt><trkpt lat="45.5663545887796" lon="10.415993088685669"><ele>262.0</ele><time>2026-04-22T14:41:15Z</time></trkpt><trkpt lat="45.56638283569829" lon="10.416095505336541"><ele>262.0</ele><time>2026-04-22T14:41:18Z</time></trkpt><trkpt lat="45.56644253229928" lon="10.41619062319789"><ele>262.0</ele><time>2026-04-22T14:41:21Z</time></trkpt><trkpt lat="45.566537031890135" lon="10.416183831993536"><ele>262.0</ele><time>2026-04-22T14:41:23Z</time></trkpt><trkpt lat="45.566616838740494" lon="10.416152166263707"><ele>262.0</ele><time>2026-04-22T14:41:26Z</time></trkpt><trkpt lat="45.5666795168763" lon="10.416126707946614"><ele>262.0</ele><time>2026-04-22T14:41:28Z</time></trkpt><trkpt lat="45.56674852913301" lon="10.416095982306777"><ele>262.0</ele><time>2026-04-22T14:41:30Z</time></trkpt><trkpt lat="45.56682214730052" lon="10.416063581661124"><ele>262.0</ele><time>2026-04-22T14:41:32Z</time></trkpt><trkpt lat="45.56690960419335" lon="10.416030118029775"><ele>262.0</ele><time>2026-04-22T14:41:35Z</time></trkpt><trkpt lat="45.5669905595166" lon="10.416006822504466"><ele>262.0</ele><time>2026-04-22T14:41:38Z</time></trkpt><trkpt lat="45.56706260461186" lon="10.415994930768713"><ele>262.0</ele><time>2026-04-22T14:41:40Z</time></trkpt><trkpt lat="45.56716246477501" lon="10.415986891831666"><ele>262.0</ele><time>2026-04-22T14:41:43Z</time></trkpt><trkpt lat="45.56723716661842" lon="10.415987589311595"><ele>261.66666666666663</ele><time>2026-04-22T14:41:46Z</time></trkpt><trkpt lat="45.567333507081266" lon="10.415988643853696"><ele>261.3333333333333</ele><time>2026-04-22T14:41:50Z</time></trkpt><trkpt lat="45.567387257233335" lon="10.416047207720801"><ele>261.0</ele><time>2026-04-22T14:41:53Z</time></trkpt><trkpt lat="45.56742254946566" lon="10.416193802996668"><ele>260.6666666666667</ele><time>2026-04-22T14:41:55Z</time></trkpt><trkpt lat="45.56738963146221" lon="10.416299923477464"><ele>260.33333333333337</ele><time>2026-04-22T14:41:57Z</time></trkpt><trkpt lat="45.56736070986493" lon="10.416384867348494"><ele>260.0</ele><time>2026-04-22T14:41:59Z</time></trkpt><trkpt lat="45.56733550966857" lon="10.416471258625219"><ele>259.83333333333337</ele><time>2026-04-22T14:42:01Z</time></trkpt><trkpt lat="45.567313865038635" lon="10.416564034901645"><ele>259.6666666666667</ele><time>2026-04-22T14:42:03Z</time></trkpt><trkpt lat="45.56727873537949" lon="10.416668672298243"><ele>259.5</ele><time>2026-04-22T14:42:05Z</time></trkpt><trkpt lat="45.567290667117994" lon="10.416799763018465"><ele>259.3333333333333</ele><time>2026-04-22T14:42:08Z</time></trkpt><trkpt lat="45.567296432670325" lon="10.41689176514465"><ele>259.16666666666663</ele><time>2026-04-22T14:42:11Z</time></trkpt><trkpt lat="45.56734266958044" lon="10.416985821339525"><ele>259.0</ele><time>2026-04-22T14:42:16Z</time></trkpt><trkpt lat="45.567302959976175" lon="10.416899488121713"><ele>259.0</ele><time>2026-04-22T14:42:25Z</time></trkpt><trkpt lat="45.56728347239489" lon="10.416812172454307"><ele>259.0</ele><time>2026-04-22T14:42:32Z</time></trkpt><trkpt lat="45.5672684300796" lon="10.416716148579074"><ele>259.0</ele><time>2026-04-22T14:42:36Z</time></trkpt><trkpt lat="45.56723053402474" lon="10.416628519445194"><ele>259.0</ele><time>2026-04-22T14:42:42Z</time></trkpt><trkpt lat="45.56721115550483" lon="10.416528118529298"><ele>259.0</ele><time>2026-04-22T14:42:55Z</time></trkpt><trkpt lat="45.56717927709455" lon="10.416450210840472"><ele>259.0</ele><time>2026-04-22T14:43:03Z</time></trkpt><trkpt lat="45.56722881101217" lon="10.416507386365842"><ele>259.0</ele><time>2026-04-22T14:43:27Z</time></trkpt><trkpt lat="45.56728252708891" lon="10.416572382775609"><ele>259.0</ele><time>2026-04-22T14:43:33Z</time></trkpt><trkpt lat="45.56726168726901" lon="10.416694952944523"><ele>259.0</ele><time>2026-04-22T14:43:36Z</time></trkpt><trkpt lat="45.56730169991759" lon="10.416803023788937"><ele>259.0</ele><time>2026-04-22T14:43:39Z</time></trkpt><trkpt lat="45.5673129381305" lon="10.416898169652807"><ele>259.0</ele><time>2026-04-22T14:43:43Z</time></trkpt><trkpt lat="45.56734976648871" lon="10.41697478368112"><ele>259.0</ele><time>2026-04-22T14:43:47Z</time></trkpt><trkpt lat="45.567409298774464" lon="10.41705688051582"><ele>259.0</ele><time>2026-04-22T14:43:50Z</time></trkpt><trkpt lat="45.56747649267425" lon="10.417143101368854"><ele>259.5</ele><time>2026-04-22T14:43:52Z</time></trkpt><trkpt lat="45.56756348220049" lon="10.417218283448411"><ele>260.0</ele><time>2026-04-22T14:43:54Z</time></trkpt><trkpt lat="45.567579760630636" lon="10.417337586426727"><ele>260.5</ele><time>2026-04-22T14:43:56Z</time></trkpt><trkpt lat="45.567632408711425" lon="10.417453349145191"><ele>261.0</ele><time>2026-04-22T14:43:58Z</time></trkpt><trkpt lat="45.56761881417287" lon="10.417574347302233"><ele>261.5</ele><time>2026-04-22T14:44:15Z</time></trkpt><trkpt lat="45.567602778540085" lon="10.417670576773421"><ele>262.0</ele><time>2026-04-22T14:44:21Z</time></trkpt><trkpt lat="45.567575457588525" lon="10.417586899609825"><ele>262.0</ele><time>2026-04-22T14:44:54Z</time></trkpt><trkpt lat="45.56750964321085" lon="10.417573436209707"><ele>262.0</ele><time>2026-04-22T14:45:26Z</time></trkpt><trkpt lat="45.568406253917054" lon="10.417047604029447"><ele>262.0</ele><time>2026-04-22T14:50:07Z</time></trkpt><trkpt lat="45.568476114441005" lon="10.416978650881537"><ele>262.0</ele><time>2026-04-22T14:50:19Z</time></trkpt><trkpt lat="45.56853760921102" lon="10.41691268081664"><ele>262.0</ele><time>2026-04-22T14:50:31Z</time></trkpt><trkpt lat="45.568506905477705" lon="10.417006551442563"><ele>262.0</ele><time>2026-04-22T14:50:59Z</time></trkpt><trkpt lat="45.568453858018515" lon="10.417065459462933"><ele>262.0</ele><time>2026-04-22T14:51:07Z</time></trkpt><trkpt lat="45.56839344308658" lon="10.417125178119916"><ele>262.0</ele><time>2026-04-22T14:51:17Z</time></trkpt><trkpt lat="45.56835463245868" lon="10.417196401280448"><ele>262.0</ele><time>2026-04-22T14:51:23Z</time></trkpt><trkpt lat="45.568296214495696" lon="10.417267037916925"><ele>262.0</ele><time>2026-04-22T14:51:26Z</time></trkpt><trkpt lat="45.56822886366188" lon="10.417295500838913"><ele>262.0</ele><time>2026-04-22T14:51:28Z</time></trkpt><trkpt lat="45.56815263778539" lon="10.417290251640916"><ele>262.0</ele><time>2026-04-22T14:51:30Z</time></trkpt><trkpt lat="45.56804582158707" lon="10.417314121731518"><ele>262.0</ele><time>2026-04-22T14:51:32Z</time></trkpt><trkpt lat="45.56794021663192" lon="10.417317181272068"><ele>262.0</ele><time>2026-04-22T14:51:34Z</time></trkpt><trkpt lat="45.56783166649124" lon="10.417339056865865"><ele>262.0</ele><time>2026-04-22T14:51:36Z</time></trkpt><trkpt lat="45.56776572089421" lon="10.417372693419603"><ele>262.0</ele><time>2026-04-22T14:51:38Z</time></trkpt><trkpt lat="45.567691525657764" lon="10.41742786280165"><ele>262.0</ele><time>2026-04-22T14:51:42Z</time></trkpt><trkpt lat="45.56763370705696" lon="10.417469656112258"><ele>262.0</ele><time>2026-04-22T14:51:46Z</time></trkpt><trkpt lat="45.56765123677137" lon="10.417560609821331"><ele>262.0</ele><time>2026-04-22T14:51:50Z</time></trkpt><trkpt lat="45.56768556066882" lon="10.41767763704609"><ele>262.0</ele><time>2026-04-22T14:51:52Z</time></trkpt><trkpt lat="45.567697340675586" lon="10.41779306657586"><ele>262.0</ele><time>2026-04-22T14:51:54Z</time></trkpt><trkpt lat="45.56774618843459" lon="10.417943572133957"><ele>262.0</ele><time>2026-04-22T14:51:56Z</time></trkpt><trkpt lat="45.56779456788384" lon="10.418055198693947"><ele>262.0</ele><time>2026-04-22T14:51:58Z</time></trkpt><trkpt lat="45.56780601730585" lon="10.418172997715901"><ele>262.0</ele><time>2026-04-22T14:52:00Z</time></trkpt><trkpt lat="45.567811792216474" lon="10.418310754125123"><ele>262.0</ele><time>2026-04-22T14:52:02Z</time></trkpt><trkpt lat="45.567810220496476" lon="10.418436097884602"><ele>262.0</ele><time>2026-04-22T14:52:04Z</time></trkpt><trkpt lat="45.567793225944506" lon="10.41854970871858"><ele>262.0</ele><time>2026-04-22T14:52:06Z</time></trkpt><trkpt lat="45.56776313212044" lon="10.418667271355654"><ele>262.0</ele><time>2026-04-22T14:52:08Z</time></trkpt><trkpt lat="45.56772385429439" lon="10.41879220114321"><ele>262.0</ele><time>2026-04-22T14:52:10Z</time></trkpt><trkpt lat="45.567674898117076" lon="10.418930734209317"><ele>262.0</ele><time>2026-04-22T14:52:12Z</time></trkpt><trkpt lat="45.56763470110822" lon="10.419080777064785"><ele>261.3333333333333</ele><time>2026-04-22T14:52:14Z</time></trkpt><trkpt lat="45.56757837549026" lon="10.41919206784991"><ele>260.66666666666663</ele><time>2026-04-22T14:52:16Z</time></trkpt><trkpt lat="45.56754753543618" lon="10.419307251488958"><ele>260.0</ele><time>2026-04-22T14:52:18Z</time></trkpt><trkpt lat="45.56752930323738" lon="10.419394484073342"><ele>259.3333333333333</ele><time>2026-04-22T14:52:20Z</time></trkpt><trkpt lat="45.56753229099566" lon="10.419485467126213"><ele>258.6666666666667</ele><time>2026-04-22T14:52:22Z</time></trkpt><trkpt lat="45.567529838790016" lon="10.419343667741744"><ele>258.0</ele><time>2026-04-22T14:52:44Z</time></trkpt><trkpt lat="45.56754552806573" lon="10.419256469885394"><ele>257.99999999999994</ele><time>2026-04-22T14:52:49Z</time></trkpt><trkpt lat="45.56756265620928" lon="10.419156700542423"><ele>258.0</ele><time>2026-04-22T14:52:53Z</time></trkpt><trkpt lat="45.56760754988983" lon="10.419076746814845"><ele>258.0</ele><time>2026-04-22T14:52:56Z</time></trkpt><trkpt lat="45.567649047294346" lon="10.419007326300676"><ele>258.0</ele><time>2026-04-22T14:52:58Z</time></trkpt><trkpt lat="45.56769296636186" lon="10.41890255028536"><ele>258.0</ele><time>2026-04-22T14:53:01Z</time></trkpt><trkpt lat="45.56773130834388" lon="10.418823007298604"><ele>257.99999999999994</ele><time>2026-04-22T14:53:03Z</time></trkpt><trkpt lat="45.56775362359106" lon="10.418705524177163"><ele>258.0</ele><time>2026-04-22T14:53:06Z</time></trkpt><trkpt lat="45.567787188011955" lon="10.41860601494396"><ele>258.8</ele><time>2026-04-22T14:53:08Z</time></trkpt><trkpt lat="45.56780236037368" lon="10.41848794923161"><ele>259.6</ele><time>2026-04-22T14:53:11Z</time></trkpt><trkpt lat="45.56781716789848" lon="10.41835250798846"><ele>260.4</ele><time>2026-04-22T14:53:14Z</time></trkpt><trkpt lat="45.56780920977862" lon="10.418243198690503"><ele>261.2</ele><time>2026-04-22T14:53:16Z</time></trkpt><trkpt lat="45.56778919476115" lon="10.418098978641742"><ele>262.0</ele><time>2026-04-22T14:53:19Z</time></trkpt><trkpt lat="45.56774824203942" lon="10.417978678048453"><ele>262.0</ele><time>2026-04-22T14:53:23Z</time></trkpt><trkpt lat="45.56771871558241" lon="10.417898851753247"><ele>262.0</ele><time>2026-04-22T14:53:26Z</time></trkpt><trkpt lat="45.567676210106995" lon="10.417828583673272"><ele>262.0</ele><time>2026-04-22T14:53:29Z</time></trkpt><trkpt lat="45.56765086969173" lon="10.41774450012174"><ele>262.0</ele><time>2026-04-22T14:53:32Z</time></trkpt><trkpt lat="45.56763151954483" lon="10.417641542683922"><ele>262.0</ele><time>2026-04-22T14:53:34Z</time></trkpt><trkpt lat="45.567606708785185" lon="10.417528650884963"><ele>262.0</ele><time>2026-04-22T14:53:36Z</time></trkpt><trkpt lat="45.567570987493184" lon="10.417410628689074"><ele>262.0</ele><time>2026-04-22T14:53:40Z</time></trkpt><trkpt lat="45.56756495965896" lon="10.41731267811875"><ele>262.0</ele><time>2026-04-22T14:53:44Z</time></trkpt><trkpt lat="45.567518425672304" lon="10.417231449622403"><ele>262.0</ele><time>2026-04-22T14:53:47Z</time></trkpt><trkpt lat="45.567452988353196" lon="10.417157464786229"><ele>262.0</ele><time>2026-04-22T14:53:49Z</time></trkpt><trkpt lat="45.56738517560128" lon="10.41709826960781"><ele>262.0</ele><time>2026-04-22T14:53:51Z</time></trkpt><trkpt lat="45.56732999547261" lon="10.417036355177126"><ele>262.0</ele><time>2026-04-22T14:53:53Z</time></trkpt><trkpt lat="45.56728641537347" lon="10.416919231183568"><ele>262.0</ele><time>2026-04-22T14:53:56Z</time></trkpt><trkpt lat="45.56729194474233" lon="10.416828536146275"><ele>261.6</ele><time>2026-04-22T14:53:58Z</time></trkpt><trkpt lat="45.5673130644154" lon="10.416700773155668"><ele>261.2</ele><time>2026-04-22T14:54:01Z</time></trkpt><trkpt lat="45.5673210050212" lon="10.416588071415422"><ele>260.8</ele><time>2026-04-22T14:54:04Z</time></trkpt><trkpt lat="45.567371408976165" lon="10.416464194522275"><ele>260.4</ele><time>2026-04-22T14:54:07Z</time></trkpt><trkpt lat="45.56740498063782" lon="10.416321540983946"><ele>260.0</ele><time>2026-04-22T14:54:10Z</time></trkpt><trkpt lat="45.567438481771894" lon="10.416223178158301"><ele>260.0</ele><time>2026-04-22T14:54:12Z</time></trkpt><trkpt lat="45.56741974700092" lon="10.416121713651513"><ele>260.0</ele><time>2026-04-22T14:54:14Z</time></trkpt><trkpt lat="45.567379592781975" lon="10.416034563684514"><ele>260.0</ele><time>2026-04-22T14:54:16Z</time></trkpt><trkpt lat="45.56728816242627" lon="10.41602910079377"><ele>260.0</ele><time>2026-04-22T14:54:18Z</time></trkpt><trkpt lat="45.56721102032421" lon="10.415971574873613"><ele>260.0</ele><time>2026-04-22T14:54:20Z</time></trkpt><trkpt lat="45.56713382246025" lon="10.415998323530985"><ele>260.0</ele><time>2026-04-22T14:54:22Z</time></trkpt><trkpt lat="45.567051507614245" lon="10.41600918257694"><ele>260.33333333333337</ele><time>2026-04-22T14:54:24Z</time></trkpt><trkpt lat="45.56696310351783" lon="10.416036119842541"><ele>260.6666666666667</ele><time>2026-04-22T14:54:27Z</time></trkpt><trkpt lat="45.566884920784716" lon="10.416064970765474"><ele>261.0</ele><time>2026-04-22T14:54:29Z</time></trkpt><trkpt lat="45.56678719649956" lon="10.41609906683251"><ele>261.3333333333333</ele><time>2026-04-22T14:54:31Z</time></trkpt><trkpt lat="45.56671035821296" lon="10.416140884285301"><ele>261.66666666666663</ele><time>2026-04-22T14:54:33Z</time></trkpt><trkpt lat="45.566659708470574" lon="10.416085957141132"><ele>262.0</ele><time>2026-04-22T14:54:34Z</time></trkpt><trkpt lat="45.56659796252749" lon="10.41611045670069"><ele>262.0</ele><time>2026-04-22T14:54:36Z</time></trkpt><trkpt lat="45.56650286273616" lon="10.416147375020259"><ele>262.0</ele><time>2026-04-22T14:54:39Z</time></trkpt><trkpt lat="45.566435314563314" lon="10.416140548683078"><ele>262.0</ele><time>2026-04-22T14:54:43Z</time></trkpt><trkpt lat="45.566397548985826" lon="10.4160618875089"><ele>262.0</ele><time>2026-04-22T14:54:45Z</time></trkpt><trkpt lat="45.56637109353305" lon="10.415956377195185"><ele>262.0</ele><time>2026-04-22T14:54:47Z</time></trkpt><trkpt lat="45.56633986211431" lon="10.415841775396599"><ele>262.0</ele><time>2026-04-22T14:54:50Z</time></trkpt><trkpt lat="45.56629290794581" lon="10.415748300521956"><ele>262.0</ele><time>2026-04-22T14:54:54Z</time></trkpt><trkpt lat="45.566257782795994" lon="10.415666317819175"><ele>262.0</ele><time>2026-04-22T14:54:56Z</time></trkpt><trkpt lat="45.56621604207391" lon="10.41554683621781"><ele>262.0</ele><time>2026-04-22T14:54:58Z</time></trkpt><trkpt lat="45.56617745309643" lon="10.415460762497474"><ele>262.0</ele><time>2026-04-22T14:55:00Z</time></trkpt><trkpt lat="45.56615736059109" lon="10.41535684193796"><ele>262.0</ele><time>2026-04-22T14:55:02Z</time></trkpt><trkpt lat="45.566126478580586" lon="10.415264914647004"><ele>262.0</ele><time>2026-04-22T14:55:04Z</time></trkpt><trkpt lat="45.566099214067286" lon="10.415167332795626"><ele>261.16666666666663</ele><time>2026-04-22T14:55:06Z</time></trkpt><trkpt lat="45.566075160304564" lon="10.415076300301578"><ele>260.3333333333333</ele><time>2026-04-22T14:55:08Z</time></trkpt><trkpt lat="45.56603993724232" lon="10.41498427856861"><ele>259.5</ele><time>2026-04-22T14:55:10Z</time></trkpt><trkpt lat="45.56601177179236" lon="10.414864476730209"><ele>258.6666666666667</ele><time>2026-04-22T14:55:13Z</time></trkpt><trkpt lat="45.565971644952846" lon="10.41477597253053"><ele>257.83333333333337</ele><time>2026-04-22T14:55:15Z</time></trkpt><trkpt lat="45.56592269371399" lon="10.414694181101444"><ele>257.0</ele><time>2026-04-22T14:55:17Z</time></trkpt><trkpt lat="45.56584112578135" lon="10.414582034484555"><ele>257.0</ele><time>2026-04-22T14:55:19Z</time></trkpt><trkpt lat="45.56576827277114" lon="10.41449471709623"><ele>257.0</ele><time>2026-04-22T14:55:21Z</time></trkpt><trkpt lat="45.56570032614238" lon="10.414415541292348"><ele>257.0</ele><time>2026-04-22T14:55:23Z</time></trkpt><trkpt lat="45.565641788046165" lon="10.414343502603133"><ele>257.0</ele><time>2026-04-22T14:55:25Z</time></trkpt><trkpt lat="45.5655933400426" lon="10.414283383596214"><ele>257.0</ele><time>2026-04-22T14:55:27Z</time></trkpt><trkpt lat="45.565538584044866" lon="10.414224893822986"><ele>257.0</ele><time>2026-04-22T14:55:29Z</time></trkpt><trkpt lat="45.5654988950787" lon="10.414134349309055"><ele>257.0</ele><time>2026-04-22T14:55:31Z</time></trkpt><trkpt lat="45.565438612189425" lon="10.414040569748702"><ele>257.0</ele><time>2026-04-22T14:55:33Z</time></trkpt><trkpt lat="45.56536082986785" lon="10.413919567142276"><ele>257.0</ele><time>2026-04-22T14:55:35Z</time></trkpt><trkpt lat="45.56528402401552" lon="10.413800083699316"><ele>257.0</ele><time>2026-04-22T14:55:37Z</time></trkpt><trkpt lat="45.565200476967725" lon="10.413670112812213"><ele>257.0</ele><time>2026-04-22T14:55:39Z</time></trkpt><trkpt lat="45.56512186534565" lon="10.41354782045456"><ele>257.5</ele><time>2026-04-22T14:55:41Z</time></trkpt><trkpt lat="45.56507679015138" lon="10.413477698777236"><ele>258.0</ele><time>2026-04-22T14:55:42Z</time></trkpt><trkpt lat="45.56500091011819" lon="10.413359489694054"><ele>258.5</ele><time>2026-04-22T14:55:44Z</time></trkpt><trkpt lat="45.56495793125272" lon="10.413292476935617"><ele>259.0</ele><time>2026-04-22T14:55:45Z</time></trkpt><trkpt lat="45.56489194289165" lon="10.4131986937335"><ele>259.5</ele><time>2026-04-22T14:55:47Z</time></trkpt><trkpt lat="45.56482301302059" lon="10.413096257001953"><ele>260.0</ele><time>2026-04-22T14:55:49Z</time></trkpt><trkpt lat="45.56476372280149" lon="10.413000429603715"><ele>259.5714285714286</ele><time>2026-04-22T14:55:51Z</time></trkpt><trkpt lat="45.5647299463007" lon="10.412912655368405"><ele>259.14285714285717</ele><time>2026-04-22T14:55:53Z</time></trkpt><trkpt lat="45.564691513873505" lon="10.412835065435477"><ele>258.7142857142857</ele><time>2026-04-22T14:55:55Z</time></trkpt><trkpt lat="45.564657557357606" lon="10.41274302629159"><ele>258.28571428571433</ele><time>2026-04-22T14:55:57Z</time></trkpt><trkpt lat="45.564655395436766" lon="10.412622468001517"><ele>257.8571428571429</ele><time>2026-04-22T14:56:00Z</time></trkpt><trkpt lat="45.56465801554945" lon="10.412508295660752"><ele>257.42857142857144</ele><time>2026-04-22T14:56:02Z</time></trkpt><trkpt lat="45.5646565517312" lon="10.41241813913382"><ele>257.0</ele><time>2026-04-22T14:56:04Z</time></trkpt><trkpt lat="45.56465152735997" lon="10.412310541546935"><ele>257.0</ele><time>2026-04-22T14:56:06Z</time></trkpt><trkpt lat="45.56466584787476" lon="10.412179342692129"><ele>257.0</ele><time>2026-04-22T14:56:09Z</time></trkpt><trkpt lat="45.56469967201414" lon="10.412101136033668"><ele>257.0</ele><time>2026-04-22T14:56:11Z</time></trkpt><trkpt lat="45.564748489907906" lon="10.412017063915112"><ele>257.0</ele><time>2026-04-22T14:56:13Z</time></trkpt><trkpt lat="45.564781444288954" lon="10.411921737242968"><ele>257.0</ele><time>2026-04-22T14:56:15Z</time></trkpt><trkpt lat="45.56479391017862" lon="10.411826002506741"><ele>257.0</ele><time>2026-04-22T14:56:17Z</time></trkpt><trkpt lat="45.564783623436774" lon="10.41173339644755"><ele>257.0</ele><time>2026-04-22T14:56:19Z</time></trkpt><trkpt lat="45.564735151517326" lon="10.411631764572768"><ele>257.0</ele><time>2026-04-22T14:56:22Z</time></trkpt><trkpt lat="45.564694109362655" lon="10.41154184765185"><ele>257.0</ele><time>2026-04-22T14:56:25Z</time></trkpt><trkpt lat="45.5646470953206" lon="10.41144422525793"><ele>257.0</ele><time>2026-04-22T14:56:27Z</time></trkpt><trkpt lat="45.56460001776434" lon="10.411344864829545"><ele>257.0</ele><time>2026-04-22T14:56:29Z</time></trkpt><trkpt lat="45.56455668104497" lon="10.41124625092166"><ele>257.0</ele><time>2026-04-22T14:56:31Z</time></trkpt><trkpt lat="45.564513109686494" lon="10.411143269620256"><ele>257.0</ele><time>2026-04-22T14:56:33Z</time></trkpt><trkpt lat="45.5644749454964" lon="10.411044450865113"><ele>258.5</ele><time>2026-04-22T14:56:35Z</time></trkpt><trkpt lat="45.56444342093594" lon="10.410951153643957"><ele>260.0</ele><time>2026-04-22T14:56:37Z</time></trkpt><trkpt lat="45.564413956733404" lon="10.410847124056193"><ele>261.5</ele><time>2026-04-22T14:56:39Z</time></trkpt><trkpt lat="45.56439207473346" lon="10.410758043767848"><ele>263.0</ele><time>2026-04-22T14:56:41Z</time></trkpt><trkpt lat="45.56438428638622" lon="10.410649856565183"><ele>264.5</ele><time>2026-04-22T14:56:44Z</time></trkpt><trkpt lat="45.56435486376951" lon="10.410534325620347"><ele>266.0</ele><time>2026-04-22T14:56:47Z</time></trkpt><trkpt lat="45.56439389703181" lon="10.410422351388851"><ele>266.0</ele><time>2026-04-22T14:56:50Z</time></trkpt><trkpt lat="45.56442716933757" lon="10.410339190187504"><ele>266.0</ele><time>2026-04-22T14:56:53Z</time></trkpt><trkpt lat="45.56442414828073" lon="10.410229254479821"><ele>266.0</ele><time>2026-04-22T14:56:56Z</time></trkpt><trkpt lat="45.56440754472845" lon="10.410141270755817"><ele>266.0</ele><time>2026-04-22T14:56:58Z</time></trkpt><trkpt lat="45.564359086879314" lon="10.410053220788182"><ele>266.0</ele><time>2026-04-22T14:57:01Z</time></trkpt><trkpt lat="45.564321143392334" lon="10.409980046957745"><ele>266.0</ele><time>2026-04-22T14:57:03Z</time></trkpt><trkpt lat="45.56427871426284" lon="10.409896521637306"><ele>266.0</ele><time>2026-04-22T14:57:05Z</time></trkpt><trkpt lat="45.564236722305054" lon="10.409803151342606"><ele>266.0</ele><time>2026-04-22T14:57:07Z</time></trkpt><trkpt lat="45.56419996050341" lon="10.409718438222711"><ele>266.0</ele><time>2026-04-22T14:57:09Z</time></trkpt><trkpt lat="45.564169724250185" lon="10.409637095952162"><ele>266.0</ele><time>2026-04-22T14:57:11Z</time></trkpt><trkpt lat="45.56413160553752" lon="10.409547774008221"><ele>266.0</ele><time>2026-04-22T14:57:13Z</time></trkpt><trkpt lat="45.56410143722753" lon="10.409461634337369"><ele>266.0</ele><time>2026-04-22T14:57:15Z</time></trkpt><trkpt lat="45.564065429595374" lon="10.409376078081287"><ele>266.0</ele><time>2026-04-22T14:57:17Z</time></trkpt><trkpt lat="45.564007764547114" lon="10.409293420162605"><ele>266.0</ele><time>2026-04-22T14:57:20Z</time></trkpt><trkpt lat="45.56394133417412" lon="10.409238209366748"><ele>265.5</ele><time>2026-04-22T14:57:23Z</time></trkpt><trkpt lat="45.56394571696058" lon="10.409108472102103"><ele>265.0</ele><time>2026-04-22T14:57:27Z</time></trkpt><trkpt lat="45.56400288794018" lon="10.409009143464866"><ele>264.5</ele><time>2026-04-22T14:57:29Z</time></trkpt><trkpt lat="45.564056175003465" lon="10.408907532458203"><ele>264.0</ele><time>2026-04-22T14:57:31Z</time></trkpt><trkpt lat="45.56410658725891" lon="10.408804264202027"><ele>263.5</ele><time>2026-04-22T14:57:33Z</time></trkpt><trkpt lat="45.564148517770924" lon="10.408690071572297"><ele>263.0</ele><time>2026-04-22T14:57:35Z</time></trkpt><trkpt lat="45.56417099672252" lon="10.408573008527668"><ele>262.4</ele><time>2026-04-22T14:57:37Z</time></trkpt><trkpt lat="45.56418613494966" lon="10.408449020925252"><ele>261.8</ele><time>2026-04-22T14:57:39Z</time></trkpt><trkpt lat="45.5642123997453" lon="10.40830018589034"><ele>261.2</ele><time>2026-04-22T14:57:41Z</time></trkpt><trkpt lat="45.564238221283325" lon="10.408154568481304"><ele>260.6</ele><time>2026-04-22T14:57:43Z</time></trkpt><trkpt lat="45.564227770245175" lon="10.408042600926663"><ele>260.0</ele><time>2026-04-22T14:57:45Z</time></trkpt><trkpt lat="45.56415359968215" lon="10.407908766745672"><ele>259.5</ele><time>2026-04-22T14:57:47Z</time></trkpt><trkpt lat="45.56410636342045" lon="10.40784461735727"><ele>259.0</ele><time>2026-04-22T14:57:48Z</time></trkpt><trkpt lat="45.56404740738005" lon="10.407768895634804"><ele>258.5</ele><time>2026-04-22T14:57:49Z</time></trkpt><trkpt lat="45.56397958791945" lon="10.407685222015811"><ele>258.0</ele><time>2026-04-22T14:57:50Z</time></trkpt><trkpt lat="45.56389919643293" lon="10.40759647032992"><ele>257.5</ele><time>2026-04-22T14:57:51Z</time></trkpt><trkpt lat="45.5638062092232" lon="10.40752179792867"><ele>257.0</ele><time>2026-04-22T14:57:52Z</time></trkpt><trkpt lat="45.56373132281564" lon="10.40742427993876"><ele>256.1666666666667</ele><time>2026-04-22T14:57:53Z</time></trkpt><trkpt lat="45.56365652159515" lon="10.407344085723382"><ele>255.33333333333334</ele><time>2026-04-22T14:57:54Z</time></trkpt><trkpt lat="45.56359049988832" lon="10.407253944592108"><ele>254.5</ele><time>2026-04-22T14:57:55Z</time></trkpt><trkpt lat="45.5635264025804" lon="10.407166213777145"><ele>253.66666666666669</ele><time>2026-04-22T14:57:56Z</time></trkpt><trkpt lat="45.56346507548016" lon="10.407076251824595"><ele>252.83333333333334</ele><time>2026-04-22T14:57:57Z</time></trkpt><trkpt lat="45.56341646329425" lon="10.406989938033902"><ele>252.0</ele><time>2026-04-22T14:57:58Z</time></trkpt><trkpt lat="45.56337376108682" lon="10.40689713430481"><ele>252.0</ele><time>2026-04-22T14:57:59Z</time></trkpt><trkpt lat="45.5633531848054" lon="10.406794908366205"><ele>252.0</ele><time>2026-04-22T14:58:00Z</time></trkpt><trkpt lat="45.563311824783305" lon="10.406710455778649"><ele>252.0</ele><time>2026-04-22T14:58:01Z</time></trkpt><trkpt lat="45.56329936668786" lon="10.406600539828343"><ele>252.0</ele><time>2026-04-22T14:58:02Z</time></trkpt><trkpt lat="45.56328591111724" lon="10.406480980422351"><ele>252.0</ele><time>2026-04-22T14:58:03Z</time></trkpt><trkpt lat="45.56328879229795" lon="10.406358946839992"><ele>252.0</ele><time>2026-04-22T14:58:04Z</time></trkpt><trkpt lat="45.56326576230165" lon="10.406257902693966"><ele>252.16666666666666</ele><time>2026-04-22T14:58:05Z</time></trkpt><trkpt lat="45.56324806883318" lon="10.406149590255175"><ele>252.33333333333331</ele><time>2026-04-22T14:58:06Z</time></trkpt><trkpt lat="45.56321673093301" lon="10.406045029696108"><ele>252.5</ele><time>2026-04-22T14:58:07Z</time></trkpt><trkpt lat="45.56318389578616" lon="10.405955465702565"><ele>252.66666666666666</ele><time>2026-04-22T14:58:08Z</time></trkpt><trkpt lat="45.56314593136732" lon="10.40585461653586"><ele>252.83333333333331</ele><time>2026-04-22T14:58:09Z</time></trkpt><trkpt lat="45.56310158118226" lon="10.405748805272925"><ele>253.0</ele><time>2026-04-22T14:58:10Z</time></trkpt><trkpt lat="45.563050247203094" lon="10.405638184067882"><ele>253.0</ele><time>2026-04-22T14:58:11Z</time></trkpt><trkpt lat="45.56299666132785" lon="10.405524942095399"><ele>253.0</ele><time>2026-04-22T14:58:12Z</time></trkpt><trkpt lat="45.562932312146856" lon="10.40541042025965"><ele>253.0</ele><time>2026-04-22T14:58:13Z</time></trkpt><trkpt lat="45.56285846404338" lon="10.405303929855375"><ele>253.0</ele><time>2026-04-22T14:58:14Z</time></trkpt><trkpt lat="45.56277716711997" lon="10.405211269622479"><ele>253.0</ele><time>2026-04-22T14:58:15Z</time></trkpt><trkpt lat="45.56270085733485" lon="10.405104078248351"><ele>252.2</ele><time>2026-04-22T14:58:16Z</time></trkpt><trkpt lat="45.56261335011009" lon="10.40501090588848"><ele>251.4</ele><time>2026-04-22T14:58:17Z</time></trkpt><trkpt lat="45.56252148628169" lon="10.404935148477415"><ele>250.59999999999997</ele><time>2026-04-22T14:58:18Z</time></trkpt><trkpt lat="45.56244816477158" lon="10.404829721263342"><ele>249.79999999999998</ele><time>2026-04-22T14:58:19Z</time></trkpt><trkpt lat="45.56238074960882" lon="10.404729850027415"><ele>249.0</ele><time>2026-04-22T14:58:20Z</time></trkpt><trkpt lat="45.562325184516745" lon="10.404663798813255"><ele>249.0</ele><time>2026-04-22T14:58:21Z</time></trkpt><trkpt lat="45.562214848199865" lon="10.404600484729606"><ele>249.0</ele><time>2026-04-22T14:58:23Z</time></trkpt><trkpt lat="45.56215240167609" lon="10.404638866040877"><ele>249.0</ele><time>2026-04-22T14:58:24Z</time></trkpt><trkpt lat="45.56211717643383" lon="10.404751019129321"><ele>249.0</ele><time>2026-04-22T14:58:25Z</time></trkpt><trkpt lat="45.562079382581125" lon="10.40482734111923"><ele>249.0</ele><time>2026-04-22T14:58:26Z</time></trkpt><trkpt lat="45.56203891656109" lon="10.404909417743962"><ele>249.0</ele><time>2026-04-22T14:58:27Z</time></trkpt><trkpt lat="45.56199401657221" lon="10.405002509934707"><ele>248.66666666666666</ele><time>2026-04-22T14:58:28Z</time></trkpt><trkpt lat="45.56195182132757" lon="10.405089994355903"><ele>248.33333333333331</ele><time>2026-04-22T14:58:29Z</time></trkpt><trkpt lat="45.561922556957526" lon="10.405192241812752"><ele>248.0</ele><time>2026-04-22T14:58:30Z</time></trkpt><trkpt lat="45.561874023727974" lon="10.405280238598676"><ele>247.66666666666666</ele><time>2026-04-22T14:58:31Z</time></trkpt><trkpt lat="45.561825391252" lon="10.405370112479833"><ele>247.33333333333331</ele><time>2026-04-22T14:58:32Z</time></trkpt><trkpt lat="45.56178535921773" lon="10.405450242304788"><ele>247.0</ele><time>2026-04-22T14:58:33Z</time></trkpt><trkpt lat="45.56174455582324" lon="10.405534459997721"><ele>246.42857142857144</ele><time>2026-04-22T14:58:34Z</time></trkpt><trkpt lat="45.56169752916207" lon="10.405614416746959"><ele>245.85714285714283</ele><time>2026-04-22T14:58:35Z</time></trkpt><trkpt lat="45.56165476006322" lon="10.405705261078905"><ele>245.28571428571428</ele><time>2026-04-22T14:58:36Z</time></trkpt><trkpt lat="45.56160703783663" lon="10.405784264719863"><ele>244.71428571428572</ele><time>2026-04-22T14:58:37Z</time></trkpt><trkpt lat="45.561559853666296" lon="10.405864766831225"><ele>244.14285714285717</ele><time>2026-04-22T14:58:38Z</time></trkpt><trkpt lat="45.56150213954484" lon="10.40593282953102"><ele>243.57142857142856</ele><time>2026-04-22T14:58:39Z</time></trkpt><trkpt lat="45.5614337075032" lon="10.405974219274256"><ele>243.0</ele><time>2026-04-22T14:58:40Z</time></trkpt><trkpt lat="45.561360043411256" lon="10.405940959955874"><ele>243.0</ele><time>2026-04-22T14:58:41Z</time></trkpt><trkpt lat="45.56129870675583" lon="10.405901647317082"><ele>243.0</ele><time>2026-04-22T14:58:42Z</time></trkpt><trkpt lat="45.56124109499735" lon="10.40585174680979"><ele>243.0</ele><time>2026-04-22T14:58:43Z</time></trkpt><trkpt lat="45.56117617096234" lon="10.405807061105898"><ele>243.0</ele><time>2026-04-22T14:58:44Z</time></trkpt><trkpt lat="45.56112051854685" lon="10.405745087336363"><ele>243.0</ele><time>2026-04-22T14:58:45Z</time></trkpt><trkpt lat="45.561057235593935" lon="10.405680251901732"><ele>243.0</ele><time>2026-04-22T14:58:46Z</time></trkpt><trkpt lat="45.560988495972516" lon="10.40561865105512"><ele>243.0</ele><time>2026-04-22T14:58:47Z</time></trkpt><trkpt lat="45.56092464145585" lon="10.405527108593688"><ele>243.66666666666666</ele><time>2026-04-22T14:58:48Z</time></trkpt><trkpt lat="45.56085508669235" lon="10.405455471874346"><ele>244.33333333333331</ele><time>2026-04-22T14:58:49Z</time></trkpt><trkpt lat="45.56077407681783" lon="10.405399804578737"><ele>245.0</ele><time>2026-04-22T14:58:50Z</time></trkpt><trkpt lat="45.56070675692992" lon="10.405310013821191"><ele>245.66666666666666</ele><time>2026-04-22T14:58:51Z</time></trkpt><trkpt lat="45.560623143288964" lon="10.405260519030136"><ele>246.33333333333331</ele><time>2026-04-22T14:58:52Z</time></trkpt><trkpt lat="45.560557811011805" lon="10.40518902352257"><ele>247.0</ele><time>2026-04-22T14:58:53Z</time></trkpt><trkpt lat="45.56049619946178" lon="10.40512417315004"><ele>247.0</ele><time>2026-04-22T14:58:54Z</time></trkpt><trkpt lat="45.560436405156395" lon="10.405061947693339"><ele>247.0</ele><time>2026-04-22T14:58:55Z</time></trkpt><trkpt lat="45.56037717947782" lon="10.40500566218623"><ele>247.0</ele><time>2026-04-22T14:58:56Z</time></trkpt><trkpt lat="45.560321743157004" lon="10.404951160942524"><ele>247.0</ele><time>2026-04-22T14:58:57Z</time></trkpt><trkpt lat="45.56026628748469" lon="10.4048995271039"><ele>247.0</ele><time>2026-04-22T14:58:58Z</time></trkpt><trkpt lat="45.560212797015666" lon="10.40484608633219"><ele>247.0</ele><time>2026-04-22T14:58:59Z</time></trkpt><trkpt lat="45.560161605347155" lon="10.404788599109558"><ele>247.0</ele><time>2026-04-22T14:59:00Z</time></trkpt><trkpt lat="45.56010637470318" lon="10.404737556068905"><ele>247.6</ele><time>2026-04-22T14:59:01Z</time></trkpt><trkpt lat="45.56000535904587" lon="10.40463151224877"><ele>248.2</ele><time>2026-04-22T14:59:03Z</time></trkpt><trkpt lat="45.559925866793265" lon="10.404504171041292"><ele>248.8</ele><time>2026-04-22T14:59:05Z</time></trkpt><trkpt lat="45.559857828153966" lon="10.404348655098138"><ele>249.4</ele><time>2026-04-22T14:59:07Z</time></trkpt><trkpt lat="45.55982535517783" lon="10.404262274078139"><ele>250.0</ele><time>2026-04-22T14:59:08Z</time></trkpt><trkpt lat="45.55979704309143" lon="10.404179340525943"><ele>250.0</ele><time>2026-04-22T14:59:09Z</time></trkpt><trkpt lat="45.55977293887635" lon="10.404093782042398"><ele>250.0</ele><time>2026-04-22T14:59:10Z</time></trkpt><trkpt lat="45.55974451035224" lon="10.404004831843913"><ele>250.0</ele><time>2026-04-22T14:59:11Z</time></trkpt><trkpt lat="45.55969225812208" lon="10.403845362461285"><ele>250.0</ele><time>2026-04-22T14:59:13Z</time></trkpt><trkpt lat="45.559633660249645" lon="10.403724443694374"><ele>250.0</ele><time>2026-04-22T14:59:15Z</time></trkpt><trkpt lat="45.55955752111861" lon="10.40362493653187"><ele>249.2</ele><time>2026-04-22T14:59:17Z</time></trkpt><trkpt lat="45.55947652005387" lon="10.403531430924271"><ele>248.4</ele><time>2026-04-22T14:59:19Z</time></trkpt><trkpt lat="45.559397018169264" lon="10.4034192224234"><ele>247.60000000000002</ele><time>2026-04-22T14:59:21Z</time></trkpt><trkpt lat="45.55932850308623" lon="10.40329317325185"><ele>246.8</ele><time>2026-04-22T14:59:23Z</time></trkpt><trkpt lat="45.55928121539697" lon="10.403233590396074"><ele>246.0</ele><time>2026-04-22T14:59:24Z</time></trkpt><trkpt lat="45.5591840146365" lon="10.40315116621977"><ele>246.0</ele><time>2026-04-22T14:59:26Z</time></trkpt><trkpt lat="45.55909073965589" lon="10.40308376464161"><ele>246.00000000000003</ele><time>2026-04-22T14:59:28Z</time></trkpt><trkpt lat="45.5590057078165" lon="10.403011193859387"><ele>246.00000000000003</ele><time>2026-04-22T14:59:30Z</time></trkpt><trkpt lat="45.558928878144876" lon="10.402926718790736"><ele>246.0</ele><time>2026-04-22T14:59:32Z</time></trkpt><trkpt lat="45.55886258193417" lon="10.402821617259125"><ele>246.0</ele><time>2026-04-22T14:59:34Z</time></trkpt><trkpt lat="45.558802858957" lon="10.402724595607204"><ele>246.0</ele><time>2026-04-22T14:59:36Z</time></trkpt><trkpt lat="45.5587373906469" lon="10.402631001310795"><ele>246.00000000000003</ele><time>2026-04-22T14:59:38Z</time></trkpt><trkpt lat="45.55870858577251" lon="10.402513420439272"><ele>246.00000000000003</ele><time>2026-04-22T14:59:40Z</time></trkpt><trkpt lat="45.55866223718632" lon="10.40238197394728"><ele>246.0</ele><time>2026-04-22T14:59:42Z</time></trkpt><trkpt lat="45.558634448626194" lon="10.402247266317195"><ele>246.0</ele><time>2026-04-22T14:59:44Z</time></trkpt><trkpt lat="45.55860228884187" lon="10.402111712312099"><ele>246.0</ele><time>2026-04-22T14:59:46Z</time></trkpt><trkpt lat="45.5585789292306" lon="10.40197010484994"><ele>246.00000000000003</ele><time>2026-04-22T14:59:48Z</time></trkpt><trkpt lat="45.55854156751652" lon="10.401848023612512"><ele>246.00000000000003</ele><time>2026-04-22T14:59:50Z</time></trkpt><trkpt lat="45.5584870366518" lon="10.40173900612609"><ele>246.0</ele><time>2026-04-22T14:59:52Z</time></trkpt><trkpt lat="45.55842889726828" lon="10.401636845239578"><ele>246.0</ele><time>2026-04-22T14:59:54Z</time></trkpt><trkpt lat="45.55837810386869" lon="10.401530347627851"><ele>246.0</ele><time>2026-04-22T14:59:56Z</time></trkpt><trkpt lat="45.55830581724166" lon="10.401436756603903"><ele>246.00000000000003</ele><time>2026-04-22T14:59:58Z</time></trkpt><trkpt lat="45.558223754890875" lon="10.401347201162194"><ele>246.00000000000003</ele><time>2026-04-22T15:00:00Z</time></trkpt><trkpt lat="45.55812916646948" lon="10.401258350160026"><ele>246.0</ele><time>2026-04-22T15:00:02Z</time></trkpt><trkpt lat="45.55806700166848" lon="10.401206712837094"><ele>246.0</ele><time>2026-04-22T15:00:03Z</time></trkpt><trkpt lat="45.55799647587724" lon="10.40117530220712"><ele>247.16666666666666</ele><time>2026-04-22T15:00:04Z</time></trkpt><trkpt lat="45.55793572310342" lon="10.40110720765303"><ele>248.33333333333331</ele><time>2026-04-22T15:00:05Z</time></trkpt><trkpt lat="45.5578719820757" lon="10.401036542272811"><ele>249.5</ele><time>2026-04-22T15:00:06Z</time></trkpt><trkpt lat="45.557801691310736" lon="10.400964603998846"><ele>250.66666666666666</ele><time>2026-04-22T15:00:07Z</time></trkpt><trkpt lat="45.55772837119925" lon="10.4008912118757"><ele>251.83333333333331</ele><time>2026-04-22T15:00:08Z</time></trkpt><trkpt lat="45.55765437213925" lon="10.400807977228508"><ele>253.0</ele><time>2026-04-22T15:00:09Z</time></trkpt><trkpt lat="45.55760925980868" lon="10.400722973935407"><ele>249.99999999999997</ele><time>2026-04-22T15:00:10Z</time></trkpt><trkpt lat="45.55755128755353" lon="10.400675985149578"><ele>247.0</ele><time>2026-04-22T15:00:11Z</time></trkpt><trkpt lat="45.55751342876239" lon="10.40057089001855"><ele>244.0</ele><time>2026-04-22T15:00:12Z</time></trkpt><trkpt lat="45.55749347105266" lon="10.40046914417918"><ele>241.0</ele><time>2026-04-22T15:00:13Z</time></trkpt><trkpt lat="45.5574174073452" lon="10.400314879584613"><ele>237.99999999999997</ele><time>2026-04-22T15:00:15Z</time></trkpt><trkpt lat="45.557361039609866" lon="10.400219463494096"><ele>235.0</ele><time>2026-04-22T15:00:16Z</time></trkpt><trkpt lat="45.55731051416364" lon="10.400106674362451"><ele>234.99999999999997</ele><time>2026-04-22T15:00:17Z</time></trkpt><trkpt lat="45.557283163886275" lon="10.399993308461143"><ele>235.0</ele><time>2026-04-22T15:00:18Z</time></trkpt><trkpt lat="45.557244458783124" lon="10.39989064645796"><ele>235.0</ele><time>2026-04-22T15:00:19Z</time></trkpt><trkpt lat="45.55721693387965" lon="10.39980809687447"><ele>235.0</ele><time>2026-04-22T15:00:20Z</time></trkpt><trkpt lat="45.55717141464558" lon="10.3996951102775"><ele>234.99999999999997</ele><time>2026-04-22T15:00:22Z</time></trkpt><trkpt lat="45.55712966583951" lon="10.39958569788174"><ele>235.0</ele><time>2026-04-22T15:00:26Z</time></trkpt><trkpt lat="45.55699552272285" lon="10.399646392236804"><ele>234.99999999999997</ele><time>2026-04-22T15:00:28Z</time></trkpt><trkpt lat="45.55696692059795" lon="10.399748134737592"><ele>235.0</ele><time>2026-04-22T15:00:29Z</time></trkpt><trkpt lat="45.55695250611577" lon="10.39985855938438"><ele>235.0</ele><time>2026-04-22T15:00:30Z</time></trkpt><trkpt lat="45.55694718727616" lon="10.399960756548527"><ele>235.0</ele><time>2026-04-22T15:00:31Z</time></trkpt><trkpt lat="45.55698278149605" lon="10.400126436739423"><ele>234.99999999999997</ele><time>2026-04-22T15:00:33Z</time></trkpt><trkpt lat="45.557029982062524" lon="10.400200920480716"><ele>235.0</ele><time>2026-04-22T15:00:34Z</time></trkpt><trkpt lat="45.55708142469159" lon="10.400278489852829"><ele>235.0</ele><time>2026-04-22T15:00:36Z</time></trkpt><trkpt lat="45.557058962789014" lon="10.40048785941915"><ele>235.0</ele><time>2026-04-22T15:00:38Z</time></trkpt><trkpt lat="45.55699585549836" lon="10.400543287408503"><ele>235.0</ele><time>2026-04-22T15:00:39Z</time></trkpt><trkpt lat="45.55688617049351" lon="10.400506350662205"><ele>235.0</ele><time>2026-04-22T15:00:40Z</time></trkpt><trkpt lat="45.556816448864375" lon="10.400478051789758"><ele>235.0</ele><time>2026-04-22T15:00:41Z</time></trkpt><trkpt lat="45.55668979619405" lon="10.400439096279056"><ele>230.83333333333331</ele><time>2026-04-22T15:00:43Z</time></trkpt><trkpt lat="45.556611773181494" lon="10.400417500060794"><ele>226.66666666666666</ele><time>2026-04-22T15:00:44Z</time></trkpt><trkpt lat="45.556532993737854" lon="10.400397569543212"><ele>222.5</ele><time>2026-04-22T15:00:45Z</time></trkpt><trkpt lat="45.55646365292094" lon="10.40038140151624"><ele>218.33333333333331</ele><time>2026-04-22T15:00:46Z</time></trkpt><trkpt lat="45.556391809328325" lon="10.400365449489147"><ele>214.16666666666666</ele><time>2026-04-22T15:00:47Z</time></trkpt><trkpt lat="45.55630269786383" lon="10.400343963621673"><ele>210.0</ele><time>2026-04-22T15:00:48Z</time></trkpt><trkpt lat="45.556210878296994" lon="10.400345301173134"><ele>207.6</ele><time>2026-04-22T15:00:49Z</time></trkpt><trkpt lat="45.5561170043816" lon="10.400342236025315"><ele>205.2</ele><time>2026-04-22T15:00:50Z</time></trkpt><trkpt lat="45.55601898066436" lon="10.400326232435685"><ele>202.8</ele><time>2026-04-22T15:00:51Z</time></trkpt><trkpt lat="45.55589775108584" lon="10.40027805129097"><ele>200.4</ele><time>2026-04-22T15:00:52Z</time></trkpt><trkpt lat="45.55579354925426" lon="10.40027031398322"><ele>198.0</ele><time>2026-04-22T15:00:53Z</time></trkpt><trkpt lat="45.55568667493855" lon="10.400245231397513"><ele>198.0</ele><time>2026-04-22T15:00:54Z</time></trkpt><trkpt lat="45.55560304001545" lon="10.40021580834324"><ele>198.0</ele><time>2026-04-22T15:00:55Z</time></trkpt><trkpt lat="45.55551624723762" lon="10.400191748992185"><ele>198.0</ele><time>2026-04-22T15:00:56Z</time></trkpt><trkpt lat="45.555429732141015" lon="10.400164412171547"><ele>198.0</ele><time>2026-04-22T15:00:57Z</time></trkpt><trkpt lat="45.55535710467466" lon="10.40014120194443"><ele>198.0</ele><time>2026-04-22T15:00:58Z</time></trkpt><trkpt lat="45.55526256072674" lon="10.400112537431305"><ele>198.0</ele><time>2026-04-22T15:00:59Z</time></trkpt><trkpt lat="45.55519422625052" lon="10.400285238807696"><ele>197.60000000000002</ele><time>2026-04-22T15:01:00Z</time></trkpt><trkpt lat="45.555127374876534" lon="10.400296877497638"><ele>197.20000000000002</ele><time>2026-04-22T15:01:01Z</time></trkpt><trkpt lat="45.55501611443279" lon="10.400299585402195"><ele>196.8</ele><time>2026-04-22T15:01:03Z</time></trkpt><trkpt lat="45.5549045260839" lon="10.400302347973255"><ele>196.4</ele><time>2026-04-22T15:01:05Z</time></trkpt><trkpt lat="45.55482183008613" lon="10.400267129096083"><ele>196.0</ele><time>2026-04-22T15:01:07Z</time></trkpt><trkpt lat="45.55478923534419" lon="10.400115474292525"><ele>196.0</ele><time>2026-04-22T15:01:09Z</time></trkpt><trkpt lat="45.55476339164577" lon="10.400336879011322"><ele>196.0</ele><time>2026-04-22T15:01:12Z</time></trkpt><trkpt lat="45.554719661406686" lon="10.400421035163802"><ele>196.0</ele><time>2026-04-22T15:01:23Z</time></trkpt><trkpt lat="45.554642577592" lon="10.400465505938948"><ele>196.0</ele><time>2026-04-22T15:01:31Z</time></trkpt><trkpt lat="45.55456355338317" lon="10.400502543583265"><ele>196.0</ele><time>2026-04-22T15:01:34Z</time></trkpt><trkpt lat="45.55448837306862" lon="10.400517771232128"><ele>195.66666666666666</ele><time>2026-04-22T15:01:36Z</time></trkpt><trkpt lat="45.55441233956542" lon="10.400541074458017"><ele>195.33333333333331</ele><time>2026-04-22T15:01:38Z</time></trkpt><trkpt lat="45.55431839960449" lon="10.40055487370324"><ele>195.0</ele><time>2026-04-22T15:01:41Z</time></trkpt><trkpt lat="45.554241488447616" lon="10.400544176925752"><ele>194.66666666666669</ele><time>2026-04-22T15:01:44Z</time></trkpt><trkpt lat="45.55416843809277" lon="10.400501668465761"><ele>194.33333333333334</ele><time>2026-04-22T15:01:47Z</time></trkpt><trkpt lat="45.55411005172942" lon="10.40044129244832"><ele>194.0</ele><time>2026-04-22T15:01:50Z</time></trkpt><trkpt lat="45.55402739594916" lon="10.400443865146405"><ele>194.0</ele><time>2026-04-22T15:01:52Z</time></trkpt><trkpt lat="45.553944410873605" lon="10.400463531904458"><ele>194.0</ele><time>2026-04-22T15:01:54Z</time></trkpt><trkpt lat="45.553871371206085" lon="10.400471963651075"><ele>194.0</ele><time>2026-04-22T15:01:56Z</time></trkpt><trkpt lat="45.55380754134967" lon="10.400522252819998"><ele>194.0</ele><time>2026-04-22T15:01:58Z</time></trkpt><trkpt lat="45.55375132418437" lon="10.400569101506031"><ele>194.0</ele><time>2026-04-22T15:02:48Z</time></trkpt><trkpt lat="45.553764136646926" lon="10.400661589678238"><ele>194.0</ele><time>2026-04-22T15:02:51Z</time></trkpt><trkpt lat="45.55378477442447" lon="10.400770383347288"><ele>194.0</ele><time>2026-04-22T15:02:54Z</time></trkpt><trkpt lat="45.55379077684613" lon="10.400887675617314"><ele>193.0</ele><time>2026-04-22T15:02:57Z</time></trkpt><trkpt lat="45.55377686074707" lon="10.400785591509834"><ele>192.0</ele><time>2026-04-22T15:10:55Z</time></trkpt><trkpt lat="45.553749564591094" lon="10.40070070908969"><ele>191.0</ele><time>2026-04-22T15:11:00Z</time></trkpt><trkpt lat="45.55369232120462" lon="10.400745959620242"><ele>190.0</ele><time>2026-04-22T15:11:41Z</time></trkpt><trkpt lat="45.55366136033998" lon="10.400847828887084"><ele>189.0</ele><time>2026-04-22T15:11:44Z</time></trkpt><trkpt lat="45.55362697299717" lon="10.400924216652722"><ele>188.0</ele><time>2026-04-22T15:11:47Z</time></trkpt><trkpt lat="45.553618320698085" lon="10.40102108829761"><ele>187.0</ele><time>2026-04-22T15:11:55Z</time></trkpt><trkpt lat="45.55357701343857" lon="10.401116470144757"><ele>187.0</ele><time>2026-04-22T15:12:05Z</time></trkpt><trkpt lat="45.55354340226312" lon="10.401193056462164"><ele>187.0</ele><time>2026-04-22T15:12:13Z</time></trkpt><trkpt lat="45.55352973472259" lon="10.401296036620785"><ele>187.0</ele><time>2026-04-22T15:12:17Z</time></trkpt><trkpt lat="45.553515691057626" lon="10.40138702011521"><ele>187.0</ele><time>2026-04-22T15:12:20Z</time></trkpt><trkpt lat="45.55348159956298" lon="10.401477361815"><ele>187.0</ele><time>2026-04-22T15:12:23Z</time></trkpt><trkpt lat="45.5534367728313" lon="10.401558042974449"><ele>187.0</ele><time>2026-04-22T15:12:27Z</time></trkpt><trkpt lat="45.55338982837874" lon="10.401636796499645"><ele>187.0</ele><time>2026-04-22T15:12:36Z</time></trkpt><trkpt lat="45.553399542888755" lon="10.401731177811072"><ele>187.16666666666669</ele><time>2026-04-22T15:12:40Z</time></trkpt><trkpt lat="45.553457691011104" lon="10.401828392529746"><ele>187.33333333333334</ele><time>2026-04-22T15:12:42Z</time></trkpt><trkpt lat="45.55349960886461" lon="10.401919577273853"><ele>187.5</ele><time>2026-04-22T15:12:44Z</time></trkpt><trkpt lat="45.553528559469775" lon="10.402041034579831"><ele>187.66666666666666</ele><time>2026-04-22T15:12:46Z</time></trkpt><trkpt lat="45.553569694515005" lon="10.402147680460827"><ele>187.83333333333331</ele><time>2026-04-22T15:12:48Z</time></trkpt><trkpt lat="45.553609915404955" lon="10.402241499722805"><ele>188.0</ele><time>2026-04-22T15:12:50Z</time></trkpt><trkpt lat="45.55363680708809" lon="10.402361455953262"><ele>187.2</ele><time>2026-04-22T15:12:52Z</time></trkpt><trkpt lat="45.55368334945345" lon="10.402475395475669"><ele>186.4</ele><time>2026-04-22T15:12:54Z</time></trkpt><trkpt lat="45.553731368788405" lon="10.40259197053445"><ele>185.6</ele><time>2026-04-22T15:12:56Z</time></trkpt><trkpt lat="45.55381193991733" lon="10.402665374319177"><ele>184.79999999999998</ele><time>2026-04-22T15:12:58Z</time></trkpt><trkpt lat="45.553859642439654" lon="10.402776136210372"><ele>184.0</ele><time>2026-04-22T15:13:00Z</time></trkpt><trkpt lat="45.553890135983885" lon="10.402907513386985"><ele>186.0</ele><time>2026-04-22T15:13:02Z</time></trkpt><trkpt lat="45.553957846184126" lon="10.403043311657314"><ele>188.0</ele><time>2026-04-22T15:13:04Z</time></trkpt><trkpt lat="45.554022414308434" lon="10.40307694356171"><ele>190.0</ele><time>2026-04-22T15:13:05Z</time></trkpt><trkpt lat="45.554080611847766" lon="10.403201604185202"><ele>192.0</ele><time>2026-04-22T15:13:07Z</time></trkpt><trkpt lat="45.554113860085025" lon="10.403344220803518"><ele>194.0</ele><time>2026-04-22T15:13:09Z</time></trkpt><trkpt lat="45.55417455429099" lon="10.40346394716894"><ele>194.0</ele><time>2026-04-22T15:13:11Z</time></trkpt><trkpt lat="45.55424029287846" lon="10.403585329974007"><ele>194.0</ele><time>2026-04-22T15:13:13Z</time></trkpt><trkpt lat="45.55427683294443" lon="10.403705130339695"><ele>194.0</ele><time>2026-04-22T15:13:15Z</time></trkpt><trkpt lat="45.55432405216923" lon="10.403806534830844"><ele>194.0</ele><time>2026-04-22T15:13:17Z</time></trkpt><trkpt lat="45.55436804188447" lon="10.403920091957147"><ele>194.0</ele><time>2026-04-22T15:13:19Z</time></trkpt><trkpt lat="45.55438547013922" lon="10.404028004877818"><ele>193.79999999999998</ele><time>2026-04-22T15:13:21Z</time></trkpt><trkpt lat="45.55441805080102" lon="10.404142735075794"><ele>193.6</ele><time>2026-04-22T15:13:23Z</time></trkpt><trkpt lat="45.55445296004386" lon="10.404265163244677"><ele>193.4</ele><time>2026-04-22T15:13:25Z</time></trkpt><trkpt lat="45.554493319981574" lon="10.40440540992863"><ele>193.2</ele><time>2026-04-22T15:13:27Z</time></trkpt><trkpt lat="45.554517021382914" lon="10.404550513652536"><ele>193.0</ele><time>2026-04-22T15:13:29Z</time></trkpt><trkpt lat="45.5545430019947" lon="10.404695425537728"><ele>193.0</ele><time>2026-04-22T15:13:31Z</time></trkpt><trkpt lat="45.55457382908152" lon="10.404857488193429"><ele>193.0</ele><time>2026-04-22T15:13:33Z</time></trkpt><trkpt lat="45.55460922716727" lon="10.40501329544309"><ele>193.0</ele><time>2026-04-22T15:13:35Z</time></trkpt><trkpt lat="45.55464655296661" lon="10.405166664915217"><ele>193.0</ele><time>2026-04-22T15:13:37Z</time></trkpt><trkpt lat="45.554683473964424" lon="10.405325806082335"><ele>193.0</ele><time>2026-04-22T15:13:39Z</time></trkpt><trkpt lat="45.55470503671832" lon="10.40541947089147"><ele>193.0</ele><time>2026-04-22T15:13:40Z</time></trkpt><trkpt lat="45.55474470778282" lon="10.405582155019511"><ele>193.0</ele><time>2026-04-22T15:13:42Z</time></trkpt><trkpt lat="45.55478387265436" lon="10.405728880350631"><ele>193.0</ele><time>2026-04-22T15:13:44Z</time></trkpt><trkpt lat="45.55485012491567" lon="10.405856950066516"><ele>193.0</ele><time>2026-04-22T15:13:46Z</time></trkpt><trkpt lat="45.55495530177984" lon="10.405895963637832"><ele>191.83333333333331</ele><time>2026-04-22T15:13:48Z</time></trkpt><trkpt lat="45.555036797427704" lon="10.405932907374943"><ele>190.66666666666666</ele><time>2026-04-22T15:13:50Z</time></trkpt><trkpt lat="45.55511500213837" lon="10.405972706313111"><ele>189.5</ele><time>2026-04-22T15:13:52Z</time></trkpt><trkpt lat="45.55519629848974" lon="10.40601625479392"><ele>188.33333333333331</ele><time>2026-04-22T15:13:54Z</time></trkpt><trkpt lat="45.55526441878541" lon="10.406091174848344"><ele>187.16666666666666</ele><time>2026-04-22T15:13:56Z</time></trkpt><trkpt lat="45.55532221806178" lon="10.40616662735806"><ele>186.0</ele><time>2026-04-22T15:13:58Z</time></trkpt><trkpt lat="45.55538495924258" lon="10.406250062698811"><ele>186.83333333333334</ele><time>2026-04-22T15:14:00Z</time></trkpt><trkpt lat="45.55544618872586" lon="10.40631564377215"><ele>187.66666666666666</ele><time>2026-04-22T15:14:02Z</time></trkpt><trkpt lat="45.55550886322173" lon="10.406372534324692"><ele>188.5</ele><time>2026-04-22T15:14:04Z</time></trkpt><trkpt lat="45.55556511423811" lon="10.406421086021712"><ele>189.33333333333331</ele><time>2026-04-22T15:14:06Z</time></trkpt><trkpt lat="45.555646053259714" lon="10.40648539311601"><ele>190.16666666666666</ele><time>2026-04-22T15:14:09Z</time></trkpt><trkpt lat="45.55572646467602" lon="10.406562425376418"><ele>191.0</ele><time>2026-04-22T15:14:12Z</time></trkpt><trkpt lat="45.55579301972749" lon="10.40665810459375"><ele>191.0</ele><time>2026-04-22T15:14:15Z</time></trkpt><trkpt lat="45.55583317588048" lon="10.406734263335517"><ele>191.0</ele><time>2026-04-22T15:14:17Z</time></trkpt><trkpt lat="45.55587658247996" lon="10.406805258274808"><ele>191.0</ele><time>2026-04-22T15:14:19Z</time></trkpt><trkpt lat="45.5559361204375" lon="10.406859859147957"><ele>191.0</ele><time>2026-04-22T15:14:21Z</time></trkpt><trkpt lat="45.55599481779129" lon="10.406940061063231"><ele>191.0</ele><time>2026-04-22T15:14:23Z</time></trkpt><trkpt lat="45.55604351950425" lon="10.407028475375792"><ele>191.0</ele><time>2026-04-22T15:14:25Z</time></trkpt><trkpt lat="45.556085383214715" lon="10.40712103149329"><ele>191.0</ele><time>2026-04-22T15:14:27Z</time></trkpt><trkpt lat="45.55614461173834" lon="10.4071830426521"><ele>190.16666666666666</ele><time>2026-04-22T15:14:29Z</time></trkpt><trkpt lat="45.5562001373756" lon="10.407236591343963"><ele>189.33333333333331</ele><time>2026-04-22T15:14:31Z</time></trkpt><trkpt lat="45.55625500511662" lon="10.407291200779472"><ele>188.5</ele><time>2026-04-22T15:14:33Z</time></trkpt><trkpt lat="45.55633216714602" lon="10.40735226068663"><ele>187.66666666666666</ele><time>2026-04-22T15:14:36Z</time></trkpt><trkpt lat="45.556394446337364" lon="10.407432778778785"><ele>186.83333333333334</ele><time>2026-04-22T15:14:39Z</time></trkpt><trkpt lat="45.55645014214957" lon="10.407516346228112"><ele>186.0</ele><time>2026-04-22T15:14:42Z</time></trkpt><trkpt lat="45.55646614547464" lon="10.407617311313052"><ele>186.83333333333334</ele><time>2026-04-22T15:14:44Z</time></trkpt><trkpt lat="45.55651400332134" lon="10.407684353154837"><ele>187.66666666666666</ele><time>2026-04-22T15:14:46Z</time></trkpt><trkpt lat="45.556567550054424" lon="10.407779205337137"><ele>188.5</ele><time>2026-04-22T15:14:48Z</time></trkpt><trkpt lat="45.55662210543154" lon="10.407846536959465"><ele>189.33333333333331</ele><time>2026-04-22T15:14:50Z</time></trkpt><trkpt lat="45.556673072522166" lon="10.407936296355137"><ele>190.16666666666666</ele><time>2026-04-22T15:14:52Z</time></trkpt><trkpt lat="45.55673573528973" lon="10.408049290115736"><ele>191.0</ele><time>2026-04-22T15:14:54Z</time></trkpt><trkpt lat="45.5567954552098" lon="10.40815582203845"><ele>191.0</ele><time>2026-04-22T15:14:56Z</time></trkpt><trkpt lat="45.55685094334435" lon="10.408252303103348"><ele>191.0</ele><time>2026-04-22T15:14:58Z</time></trkpt><trkpt lat="45.5569111881344" lon="10.408349850979738"><ele>191.0</ele><time>2026-04-22T15:15:00Z</time></trkpt><trkpt lat="45.55697439903759" lon="10.408447658721562"><ele>191.0</ele><time>2026-04-22T15:15:02Z</time></trkpt><trkpt lat="45.55703639074921" lon="10.408543839276694"><ele>191.0</ele><time>2026-04-22T15:15:04Z</time></trkpt><trkpt lat="45.55709277154879" lon="10.408655005778211"><ele>192.8</ele><time>2026-04-22T15:15:06Z</time></trkpt><trkpt lat="45.557151364818296" lon="10.40874622312729"><ele>194.60000000000002</ele><time>2026-04-22T15:15:08Z</time></trkpt><trkpt lat="45.557197288352484" lon="10.408835108577332"><ele>196.4</ele><time>2026-04-22T15:15:10Z</time></trkpt><trkpt lat="45.55725215108394" lon="10.408927515501244"><ele>198.2</ele><time>2026-04-22T15:15:12Z</time></trkpt><trkpt lat="45.55733593262795" lon="10.409039945359314"><ele>200.0</ele><time>2026-04-22T15:15:14Z</time></trkpt><trkpt lat="45.557405016609735" lon="10.4091228159138"><ele>200.00000000000003</ele><time>2026-04-22T15:15:16Z</time></trkpt><trkpt lat="45.55747951470941" lon="10.409204933503483"><ele>200.0</ele><time>2026-04-22T15:15:18Z</time></trkpt><trkpt lat="45.55754343388271" lon="10.409294960708356"><ele>200.0</ele><time>2026-04-22T15:15:20Z</time></trkpt><trkpt lat="45.557615245128794" lon="10.409376865514789"><ele>200.0</ele><time>2026-04-22T15:15:22Z</time></trkpt><trkpt lat="45.557689066892806" lon="10.40946440752994"><ele>200.00000000000003</ele><time>2026-04-22T15:15:25Z</time></trkpt><trkpt lat="45.55774734262768" lon="10.40950461844509"><ele>200.0</ele><time>2026-04-22T15:15:27Z</time></trkpt><trkpt lat="45.557806492561824" lon="10.409557370965997"><ele>200.00000000000003</ele><time>2026-04-22T15:15:30Z</time></trkpt><trkpt lat="45.55786268216775" lon="10.409636382656503"><ele>200.0</ele><time>2026-04-22T15:15:33Z</time></trkpt><trkpt lat="45.55792194039292" lon="10.409692080941596"><ele>200.0</ele><time>2026-04-22T15:15:36Z</time></trkpt><trkpt lat="45.557990190249214" lon="10.409741095077997"><ele>200.0</ele><time>2026-04-22T15:15:40Z</time></trkpt><trkpt lat="45.55806900223191" lon="10.409731045096425"><ele>200.00000000000003</ele><time>2026-04-22T15:15:44Z</time></trkpt><trkpt lat="45.55800145716463" lon="10.409694661360634"><ele>200.0</ele><time>2026-04-22T15:16:27Z</time></trkpt><trkpt lat="45.557919449445386" lon="10.409649872700376"><ele>200.0</ele><time>2026-04-22T15:16:29Z</time></trkpt><trkpt lat="45.557825248463985" lon="10.40954849403166"><ele>200.0</ele><time>2026-04-22T15:16:31Z</time></trkpt><trkpt lat="45.557761206678194" lon="10.40948766782716"><ele>200.0</ele><time>2026-04-22T15:16:32Z</time></trkpt><trkpt lat="45.55771665227527" lon="10.409415968727501"><ele>200.0</ele><time>2026-04-22T15:16:33Z</time></trkpt><trkpt lat="45.55764158527329" lon="10.409336405000706"><ele>200.0</ele><time>2026-04-22T15:16:34Z</time></trkpt><trkpt lat="45.55755515127484" lon="10.409257567156924"><ele>200.0</ele><time>2026-04-22T15:16:35Z</time></trkpt><trkpt lat="45.557460500637106" lon="10.409173377604807"><ele>200.0</ele><time>2026-04-22T15:16:36Z</time></trkpt><trkpt lat="45.55737340700101" lon="10.409073611983969"><ele>200.0</ele><time>2026-04-22T15:16:37Z</time></trkpt><trkpt lat="45.557291737404014" lon="10.4089594664063"><ele>200.0</ele><time>2026-04-22T15:16:38Z</time></trkpt><trkpt lat="45.55721830162416" lon="10.408833138362311"><ele>197.75</ele><time>2026-04-22T15:16:39Z</time></trkpt><trkpt lat="45.55715603117383" lon="10.408700336483738"><ele>195.5</ele><time>2026-04-22T15:16:40Z</time></trkpt><trkpt lat="45.5570718398218" lon="10.408578306435189"><ele>193.25</ele><time>2026-04-22T15:16:41Z</time></trkpt><trkpt lat="45.55699853208211" lon="10.408460322240613"><ele>191.0</ele><time>2026-04-22T15:16:42Z</time></trkpt><trkpt lat="45.556926362896945" lon="10.408343364282697"><ele>191.0</ele><time>2026-04-22T15:16:43Z</time></trkpt><trkpt lat="45.55685154968265" lon="10.408235382101331"><ele>191.0</ele><time>2026-04-22T15:16:44Z</time></trkpt><trkpt lat="45.556786469401295" lon="10.408118183949707"><ele>191.0</ele><time>2026-04-22T15:16:45Z</time></trkpt><trkpt lat="45.5567231119891" lon="10.408000808029021"><ele>191.0</ele><time>2026-04-22T15:16:46Z</time></trkpt><trkpt lat="45.5566599472979" lon="10.407887522298648"><ele>191.0</ele><time>2026-04-22T15:16:47Z</time></trkpt><trkpt lat="45.55661119825732" lon="10.407798549979116"><ele>192.8</ele><time>2026-04-22T15:16:48Z</time></trkpt><trkpt lat="45.55657459027685" lon="10.40772437093537"><ele>194.60000000000002</ele><time>2026-04-22T15:16:49Z</time></trkpt><trkpt lat="45.55650760404828" lon="10.407672951485221"><ele>196.4</ele><time>2026-04-22T15:16:51Z</time></trkpt><trkpt lat="45.556406524071" lon="10.407749523601602"><ele>198.2</ele><time>2026-04-22T15:16:53Z</time></trkpt><trkpt lat="45.556326201059875" lon="10.40785880275151"><ele>200.0</ele><time>2026-04-22T15:16:55Z</time></trkpt><trkpt lat="45.55623960374647" lon="10.407956858511396"><ele>197.83333333333334</ele><time>2026-04-22T15:16:57Z</time></trkpt><trkpt lat="45.5561890617687" lon="10.408011751511545"><ele>195.66666666666669</ele><time>2026-04-22T15:16:58Z</time></trkpt><trkpt lat="45.55611225749397" lon="10.408081606885345"><ele>193.5</ele><time>2026-04-22T15:17:00Z</time></trkpt><trkpt lat="45.5560326838263" lon="10.408173335970615"><ele>191.33333333333334</ele><time>2026-04-22T15:17:02Z</time></trkpt><trkpt lat="45.555954198409275" lon="10.408264508147807"><ele>189.16666666666669</ele><time>2026-04-22T15:17:04Z</time></trkpt><trkpt lat="45.555884688834574" lon="10.408345253604237"><ele>187.0</ele><time>2026-04-22T15:17:06Z</time></trkpt><trkpt lat="45.555806035869026" lon="10.408437720293414"><ele>187.0</ele><time>2026-04-22T15:17:08Z</time></trkpt><trkpt lat="45.55574353864801" lon="10.408511263198251"><ele>187.0</ele><time>2026-04-22T15:17:10Z</time></trkpt><trkpt lat="45.55566889398427" lon="10.408599100435271"><ele>187.0</ele><time>2026-04-22T15:17:12Z</time></trkpt><trkpt lat="45.55559589933249" lon="10.40868405541905"><ele>187.0</ele><time>2026-04-22T15:17:14Z</time></trkpt><trkpt lat="45.55552353580739" lon="10.408767099987793"><ele>187.0</ele><time>2026-04-22T15:17:16Z</time></trkpt><trkpt lat="45.55543848917181" lon="10.40886244766347"><ele>186.66666666666669</ele><time>2026-04-22T15:17:18Z</time></trkpt><trkpt lat="45.555370352543285" lon="10.408976435819657"><ele>186.33333333333334</ele><time>2026-04-22T15:17:20Z</time></trkpt><trkpt lat="45.55530708355053" lon="10.409049697581217"><ele>186.0</ele><time>2026-04-22T15:17:22Z</time></trkpt><trkpt lat="45.555250072818644" lon="10.409113119039825"><ele>185.66666666666666</ele><time>2026-04-22T15:17:24Z</time></trkpt><trkpt lat="45.55519002001009" lon="10.409180530760121"><ele>185.33333333333331</ele><time>2026-04-22T15:17:27Z</time></trkpt><trkpt lat="45.555109300390626" lon="10.409196009054936"><ele>185.0</ele><time>2026-04-22T15:17:29Z</time></trkpt><trkpt lat="45.55500726005692" lon="10.4092704663452"><ele>185.0</ele><time>2026-04-22T15:17:31Z</time></trkpt><trkpt lat="45.5549277835673" lon="10.409368589025107"><ele>185.0</ele><time>2026-04-22T15:17:33Z</time></trkpt><trkpt lat="45.554862157951064" lon="10.409479128504705"><ele>185.0</ele><time>2026-04-22T15:17:35Z</time></trkpt><trkpt lat="45.554764078430566" lon="10.409506372890183"><ele>185.0</ele><time>2026-04-22T15:17:37Z</time></trkpt><trkpt lat="45.55468108241878" lon="10.40957922138345"><ele>185.0</ele><time>2026-04-22T15:17:39Z</time></trkpt><trkpt lat="45.5545979455105" lon="10.40965351335665"><ele>185.0</ele><time>2026-04-22T15:17:41Z</time></trkpt><trkpt lat="45.55451877766986" lon="10.409722556602222"><ele>185.0</ele><time>2026-04-22T15:17:43Z</time></trkpt><trkpt lat="45.55443617580895" lon="10.409778218009244"><ele>185.0</ele><time>2026-04-22T15:17:45Z</time></trkpt><trkpt lat="45.55434880413133" lon="10.409823413357605"><ele>185.0</ele><time>2026-04-22T15:17:47Z</time></trkpt><trkpt lat="45.55426793375628" lon="10.40986513034936"><ele>185.0</ele><time>2026-04-22T15:17:49Z</time></trkpt><trkpt lat="45.55418271563037" lon="10.40990931812422"><ele>185.0</ele><time>2026-04-22T15:17:51Z</time></trkpt><trkpt lat="45.5541080836177" lon="10.409951455080357"><ele>185.0</ele><time>2026-04-22T15:17:53Z</time></trkpt><trkpt lat="45.554033194560986" lon="10.409996325581798"><ele>185.0</ele><time>2026-04-22T15:17:55Z</time></trkpt><trkpt lat="45.553951331812634" lon="10.410052987400446"><ele>185.0</ele><time>2026-04-22T15:17:57Z</time></trkpt><trkpt lat="45.55387781882922" lon="10.410108241623401"><ele>185.0</ele><time>2026-04-22T15:17:59Z</time></trkpt><trkpt lat="45.55380115657397" lon="10.410166348013322"><ele>185.0</ele><time>2026-04-22T15:18:01Z</time></trkpt><trkpt lat="45.55372612813881" lon="10.410223199800521"><ele>184.83333333333331</ele><time>2026-04-22T15:18:03Z</time></trkpt><trkpt lat="45.55365256347263" lon="10.41028960362163"><ele>184.66666666666666</ele><time>2026-04-22T15:18:05Z</time></trkpt><trkpt lat="45.553571576414996" lon="10.410360668454851"><ele>184.5</ele><time>2026-04-22T15:18:07Z</time></trkpt><trkpt lat="45.55349802359275" lon="10.410434753802306"><ele>184.33333333333334</ele><time>2026-04-22T15:18:09Z</time></trkpt><trkpt lat="45.553428817794746" lon="10.410501966786875"><ele>184.16666666666669</ele><time>2026-04-22T15:18:11Z</time></trkpt><trkpt lat="45.55335773521817" lon="10.410567066447333"><ele>184.0</ele><time>2026-04-22T15:18:13Z</time></trkpt><trkpt lat="45.553279141345634" lon="10.410637178770594"><ele>184.0</ele><time>2026-04-22T15:18:15Z</time></trkpt><trkpt lat="45.55317903272265" lon="10.410726053115246"><ele>184.0</ele><time>2026-04-22T15:18:17Z</time></trkpt><trkpt lat="45.55308049916094" lon="10.410813529303512"><ele>184.0</ele><time>2026-04-22T15:18:19Z</time></trkpt><trkpt lat="45.55297200730611" lon="10.410909846207003"><ele>184.0</ele><time>2026-04-22T15:18:21Z</time></trkpt><trkpt lat="45.55288651434779" lon="10.4109857452143"><ele>184.0</ele><time>2026-04-22T15:18:23Z</time></trkpt><trkpt lat="45.55279154952999" lon="10.411070053010828"><ele>184.0</ele><time>2026-04-22T15:18:25Z</time></trkpt><trkpt lat="45.552700981248805" lon="10.41115091852691"><ele>184.0</ele><time>2026-04-22T15:18:27Z</time></trkpt><trkpt lat="45.552629653485596" lon="10.411303352054661"><ele>184.0</ele><time>2026-04-22T15:18:29Z</time></trkpt><trkpt lat="45.55252890262296" lon="10.411386297681458"><ele>184.0</ele><time>2026-04-22T15:18:31Z</time></trkpt><trkpt lat="45.55247675798203" lon="10.41143732716347"><ele>184.0</ele><time>2026-04-22T15:18:32Z</time></trkpt><trkpt lat="45.552378897385815" lon="10.411522692290463"><ele>184.0</ele><time>2026-04-22T15:18:34Z</time></trkpt><trkpt lat="45.552287945574044" lon="10.41161258957954"><ele>184.0</ele><time>2026-04-22T15:18:36Z</time></trkpt><trkpt lat="45.55220245089168" lon="10.411689736808812"><ele>184.0</ele><time>2026-04-22T15:18:38Z</time></trkpt><trkpt lat="45.5521113510862" lon="10.411755576568412"><ele>183.83333333333334</ele><time>2026-04-22T15:18:40Z</time></trkpt><trkpt lat="45.55203178720391" lon="10.41182302978738"><ele>183.66666666666669</ele><time>2026-04-22T15:18:42Z</time></trkpt><trkpt lat="45.55196999221649" lon="10.411902798881961"><ele>183.5</ele><time>2026-04-22T15:18:44Z</time></trkpt><trkpt lat="45.5519050229896" lon="10.411962784539677"><ele>183.33333333333334</ele><time>2026-04-22T15:18:46Z</time></trkpt><trkpt lat="45.55191764501026" lon="10.412091790663744"><ele>183.16666666666666</ele><time>2026-04-22T15:18:49Z</time></trkpt><trkpt lat="45.55194638356375" lon="10.412208460488788"><ele>183.0</ele><time>2026-04-22T15:18:51Z</time></trkpt><trkpt lat="45.55200365846042" lon="10.41228867181924"><ele>183.83333333333334</ele><time>2026-04-22T15:18:53Z</time></trkpt><trkpt lat="45.55206544597737" lon="10.412384438966487"><ele>184.66666666666666</ele><time>2026-04-22T15:18:55Z</time></trkpt><trkpt lat="45.55211034517155" lon="10.412497919439422"><ele>185.5</ele><time>2026-04-22T15:18:57Z</time></trkpt><trkpt lat="45.552181637138744" lon="10.412581955031479"><ele>186.33333333333331</ele><time>2026-04-22T15:18:59Z</time></trkpt><trkpt lat="45.55225098675442" lon="10.412676613207898"><ele>187.16666666666666</ele><time>2026-04-22T15:19:01Z</time></trkpt><trkpt lat="45.55229881589602" lon="10.412751683587873"><ele>188.0</ele><time>2026-04-22T15:19:02Z</time></trkpt><trkpt lat="45.55235312854205" lon="10.412842916357281"><ele>188.0</ele><time>2026-04-22T15:19:04Z</time></trkpt><trkpt lat="45.552431266786904" lon="10.412932152526936"><ele>188.0</ele><time>2026-04-22T15:19:06Z</time></trkpt><trkpt lat="45.55248384555386" lon="10.413042486954582"><ele>188.0</ele><time>2026-04-22T15:19:09Z</time></trkpt><trkpt lat="45.55252187686242" lon="10.413140930754233"><ele>188.0</ele><time>2026-04-22T15:19:12Z</time></trkpt><trkpt lat="45.55249005676826" lon="10.413235928664108"><ele>188.0</ele><time>2026-04-22T15:19:15Z</time></trkpt><trkpt lat="45.55241690560977" lon="10.413312677721587"><ele>188.0</ele><time>2026-04-22T15:19:18Z</time></trkpt><trkpt lat="45.55234913525724" lon="10.413396399514474"><ele>188.0</ele><time>2026-04-22T15:19:20Z</time></trkpt><trkpt lat="45.5522787799936" lon="10.413489650592728"><ele>188.0</ele><time>2026-04-22T15:19:22Z</time></trkpt><trkpt lat="45.55220999786274" lon="10.41358898849074"><ele>188.0</ele><time>2026-04-22T15:19:24Z</time></trkpt><trkpt lat="45.55214336860379" lon="10.413724406314072"><ele>188.0</ele><time>2026-04-22T15:19:26Z</time></trkpt><trkpt lat="45.55209788238074" lon="10.413838475917725"><ele>188.0</ele><time>2026-04-22T15:19:28Z</time></trkpt><trkpt lat="45.552059020192296" lon="10.413976605289841"><ele>188.0</ele><time>2026-04-22T15:19:30Z</time></trkpt><trkpt lat="45.552030166764396" lon="10.414118925178595"><ele>188.0</ele><time>2026-04-22T15:19:32Z</time></trkpt><trkpt lat="45.55200635206333" lon="10.414263049906836"><ele>188.0</ele><time>2026-04-22T15:19:34Z</time></trkpt><trkpt lat="45.55199748613392" lon="10.414417077086885"><ele>188.0</ele><time>2026-04-22T15:19:36Z</time></trkpt><trkpt lat="45.551963433038985" lon="10.414554257734038"><ele>188.0</ele><time>2026-04-22T15:19:38Z</time></trkpt><trkpt lat="45.55195851184842" lon="10.414699607986064"><ele>187.8</ele><time>2026-04-22T15:19:40Z</time></trkpt><trkpt lat="45.55194072172839" lon="10.414844662142547"><ele>187.60000000000002</ele><time>2026-04-22T15:19:42Z</time></trkpt><trkpt lat="45.551906810965335" lon="10.41499444172839"><ele>187.39999999999998</ele><time>2026-04-22T15:19:44Z</time></trkpt><trkpt lat="45.55188843811792" lon="10.415138687382012"><ele>187.2</ele><time>2026-04-22T15:19:46Z</time></trkpt><trkpt lat="45.55188138343379" lon="10.415288125719304"><ele>187.0</ele><time>2026-04-22T15:19:48Z</time></trkpt><trkpt lat="45.551839321836354" lon="10.415432160551848"><ele>186.75</ele><time>2026-04-22T15:19:50Z</time></trkpt><trkpt lat="45.551801921269515" lon="10.415592227405734"><ele>186.5</ele><time>2026-04-22T15:19:52Z</time></trkpt><trkpt lat="45.551763681278324" lon="10.415764368481522"><ele>186.25</ele><time>2026-04-22T15:19:54Z</time></trkpt><trkpt lat="45.55172932335723" lon="10.41591291960446"><ele>186.0</ele><time>2026-04-22T15:19:56Z</time></trkpt><trkpt lat="45.55169492629733" lon="10.416057303525472"><ele>186.0</ele><time>2026-04-22T15:19:58Z</time></trkpt><trkpt lat="45.55167301974087" lon="10.416183717732782"><ele>186.0</ele><time>2026-04-22T15:20:00Z</time></trkpt><trkpt lat="45.55167025784517" lon="10.416316711796405"><ele>186.0</ele><time>2026-04-22T15:20:02Z</time></trkpt><trkpt lat="45.55167195113697" lon="10.416422426934503"><ele>186.0</ele><time>2026-04-22T15:20:04Z</time></trkpt><trkpt lat="45.551683941493046" lon="10.416537247405111"><ele>186.0</ele><time>2026-04-22T15:20:06Z</time></trkpt><trkpt lat="45.55166403036824" lon="10.416655131973162"><ele>186.0</ele><time>2026-04-22T15:20:08Z</time></trkpt><trkpt lat="45.55162540703752" lon="10.416785458944359"><ele>186.0</ele><time>2026-04-22T15:20:10Z</time></trkpt><trkpt lat="45.55161365387642" lon="10.416914482747842"><ele>186.0</ele><time>2026-04-22T15:20:12Z</time></trkpt><trkpt lat="45.551593189789486" lon="10.41703522588368"><ele>186.0</ele><time>2026-04-22T15:20:14Z</time></trkpt><trkpt lat="45.55158070899" lon="10.417161307034682"><ele>186.0</ele><time>2026-04-22T15:20:16Z</time></trkpt><trkpt lat="45.551558964993056" lon="10.417290578995939"><ele>186.0</ele><time>2026-04-22T15:20:18Z</time></trkpt><trkpt lat="45.55153705581105" lon="10.417420739035945"><ele>186.60000000000002</ele><time>2026-04-22T15:20:20Z</time></trkpt><trkpt lat="45.55150612578755" lon="10.417543478659468"><ele>187.2</ele><time>2026-04-22T15:20:22Z</time></trkpt><trkpt lat="45.55146464479572" lon="10.417660855588505"><ele>187.8</ele><time>2026-04-22T15:20:24Z</time></trkpt><trkpt lat="45.55141512248176" lon="10.41776621910249"><ele>188.39999999999998</ele><time>2026-04-22T15:20:26Z</time></trkpt><trkpt lat="45.551366817236776" lon="10.417860403692464"><ele>189.0</ele><time>2026-04-22T15:20:28Z</time></trkpt><trkpt lat="45.551319491212425" lon="10.417986758420728"><ele>189.2</ele><time>2026-04-22T15:20:30Z</time></trkpt><trkpt lat="45.551252221252255" lon="10.418074125583178"><ele>189.39999999999998</ele><time>2026-04-22T15:20:32Z</time></trkpt><trkpt lat="45.55119394577402" lon="10.41816718357342"><ele>189.6</ele><time>2026-04-22T15:20:34Z</time></trkpt><trkpt lat="45.551153429816004" lon="10.418261392671308"><ele>189.8</ele><time>2026-04-22T15:20:36Z</time></trkpt><trkpt lat="45.55108493014947" lon="10.418362435488792"><ele>190.0</ele><time>2026-04-22T15:20:38Z</time></trkpt><trkpt lat="45.55100772368914" lon="10.418442618279487"><ele>190.0</ele><time>2026-04-22T15:20:40Z</time></trkpt><trkpt lat="45.55094127142635" lon="10.418539051356639"><ele>190.0</ele><time>2026-04-22T15:20:42Z</time></trkpt><trkpt lat="45.55087946284559" lon="10.418628745872967"><ele>190.0</ele><time>2026-04-22T15:20:44Z</time></trkpt><trkpt lat="45.55081592214393" lon="10.418720953925652"><ele>190.0</ele><time>2026-04-22T15:20:46Z</time></trkpt><trkpt lat="45.55074980367508" lon="10.418816902738463"><ele>190.0</ele><time>2026-04-22T15:20:48Z</time></trkpt><trkpt lat="45.55067164270978" lon="10.418931430717807"><ele>189.8</ele><time>2026-04-22T15:20:50Z</time></trkpt><trkpt lat="45.55060023757758" lon="10.41903701144776"><ele>189.6</ele><time>2026-04-22T15:20:52Z</time></trkpt><trkpt lat="45.55052538578549" lon="10.419147688397896"><ele>189.39999999999998</ele><time>2026-04-22T15:20:54Z</time></trkpt><trkpt lat="45.550454375572045" lon="10.419286181820254"><ele>189.2</ele><time>2026-04-22T15:20:56Z</time></trkpt><trkpt lat="45.55039943563104" lon="10.419333920222806"><ele>189.0</ele><time>2026-04-22T15:20:57Z</time></trkpt><trkpt lat="45.5503253823924" lon="10.41947259820205"><ele>188.79999999999998</ele><time>2026-04-22T15:20:59Z</time></trkpt><trkpt lat="45.55023633231396" lon="10.419571605373674"><ele>188.6</ele><time>2026-04-22T15:21:01Z</time></trkpt><trkpt lat="45.55017533847066" lon="10.419687439947614"><ele>188.4</ele><time>2026-04-22T15:21:03Z</time></trkpt><trkpt lat="45.55010419076867" lon="10.419784532733445"><ele>188.2</ele><time>2026-04-22T15:21:05Z</time></trkpt><trkpt lat="45.55005164955241" lon="10.41986874315431"><ele>188.0</ele><time>2026-04-22T15:21:07Z</time></trkpt><trkpt lat="45.549991310076734" lon="10.41992517954009"><ele>190.0</ele><time>2026-04-22T15:21:09Z</time></trkpt><trkpt lat="45.54958069698038" lon="10.420267711666396"><ele>190.0</ele><time>2026-04-22T15:21:15Z</time></trkpt><trkpt lat="45.549939146322075" lon="10.419933749659167"><ele>190.0</ele><time>2026-04-22T15:21:18Z</time></trkpt><trkpt lat="45.54974493175514" lon="10.419858748198939"><ele>190.0</ele><time>2026-04-22T15:21:26Z</time></trkpt></trkseg></trk></gpx>